<?xml version="1.0" encoding="UTF-8" standalone="no" ?>
<gpx xmlns="http://www.topografix.com/GPX/1/1" xmlns:xsi="http://www.w3.org/2001/XMLSchema-instance" xsi:schemaLocation="http://www.topografix.com/GPX/1/1 http://www.topografix.com/GPX/1/1/gpx.xsd" version="1.1" creator="VisuGPX - https://www.visugpx.com">
  <metadata>
    <name>20200704 - sortie route 33 KM</name>
    <desc><![CDATA[Encore beaucoup de vent mais toujours en forme (A Montay une petite grimpette de 7%)]]></desc>
  </metadata>
  <trk>
    <name><![CDATA[2020-07-04 15:59:59]]></name>
    <trkseg>
      <trkpt lat="50.12477" lon="3.67812">
        <ele>135.2</ele>
        <time>2020-07-04T12:21:50Z</time>
      </trkpt>
      <trkpt lat="50.12477" lon="3.67812">
        <ele>135.2</ele>
        <time>2020-07-04T12:21:53Z</time>
      </trkpt>
      <trkpt lat="50.1248" lon="3.67816">
        <ele>135.68</ele>
        <time>2020-07-04T12:21:55Z</time>
      </trkpt>
      <trkpt lat="50.12513" lon="3.67852">
        <ele>135.2</ele>
        <time>2020-07-04T12:22:08Z</time>
      </trkpt>
      <trkpt lat="50.12564" lon="3.67898">
        <ele>135.68</ele>
        <time>2020-07-04T12:22:23Z</time>
      </trkpt>
      <trkpt lat="50.12568" lon="3.67901">
        <ele>135.68</ele>
        <time>2020-07-04T12:22:24Z</time>
      </trkpt>
      <trkpt lat="50.12571" lon="3.67905">
        <ele>135.68</ele>
        <time>2020-07-04T12:22:25Z</time>
      </trkpt>
      <trkpt lat="50.12587" lon="3.67927">
        <ele>135.68</ele>
        <time>2020-07-04T12:22:30Z</time>
      </trkpt>
      <trkpt lat="50.12605" lon="3.67965">
        <ele>135.68</ele>
        <time>2020-07-04T12:22:37Z</time>
      </trkpt>
      <trkpt lat="50.12608" lon="3.67971">
        <ele>135.68</ele>
        <time>2020-07-04T12:22:38Z</time>
      </trkpt>
      <trkpt lat="50.12638" lon="3.68033">
        <ele>136.16</ele>
        <time>2020-07-04T12:22:48Z</time>
      </trkpt>
      <trkpt lat="50.12689" lon="3.68143">
        <ele>136.16</ele>
        <time>2020-07-04T12:23:05Z</time>
      </trkpt>
      <trkpt lat="50.12728" lon="3.68228">
        <ele>136.16</ele>
        <time>2020-07-04T12:23:18Z</time>
      </trkpt>
      <trkpt lat="50.1273" lon="3.68235">
        <ele>136.16</ele>
        <time>2020-07-04T12:23:19Z</time>
      </trkpt>
      <trkpt lat="50.12733" lon="3.68242">
        <ele>136.16</ele>
        <time>2020-07-04T12:23:20Z</time>
      </trkpt>
      <trkpt lat="50.12769" lon="3.68354">
        <ele>136.64</ele>
        <time>2020-07-04T12:23:35Z</time>
      </trkpt>
      <trkpt lat="50.1278" lon="3.68387">
        <ele>137.13</ele>
        <time>2020-07-04T12:23:40Z</time>
      </trkpt>
      <trkpt lat="50.12781" lon="3.68394">
        <ele>137.13</ele>
        <time>2020-07-04T12:23:41Z</time>
      </trkpt>
      <trkpt lat="50.12798" lon="3.68441">
        <ele>137.61</ele>
        <time>2020-07-04T12:23:50Z</time>
      </trkpt>
      <trkpt lat="50.12802" lon="3.68443">
        <ele>137.61</ele>
        <time>2020-07-04T12:23:51Z</time>
      </trkpt>
      <trkpt lat="50.12805" lon="3.68443">
        <ele>137.61</ele>
        <time>2020-07-04T12:23:52Z</time>
      </trkpt>
      <trkpt lat="50.12809" lon="3.68441">
        <ele>137.61</ele>
        <time>2020-07-04T12:23:53Z</time>
      </trkpt>
      <trkpt lat="50.12812" lon="3.6844">
        <ele>137.61</ele>
        <time>2020-07-04T12:23:54Z</time>
      </trkpt>
      <trkpt lat="50.12816" lon="3.68437">
        <ele>137.61</ele>
        <time>2020-07-04T12:23:55Z</time>
      </trkpt>
      <trkpt lat="50.12819" lon="3.68434">
        <ele>137.61</ele>
        <time>2020-07-04T12:23:56Z</time>
      </trkpt>
      <trkpt lat="50.12852" lon="3.68393">
        <ele>139.05</ele>
        <time>2020-07-04T12:24:07Z</time>
      </trkpt>
      <trkpt lat="50.12856" lon="3.68394">
        <ele>139.53</ele>
        <time>2020-07-04T12:24:08Z</time>
      </trkpt>
      <trkpt lat="50.12859" lon="3.68398">
        <ele>139.53</ele>
        <time>2020-07-04T12:24:09Z</time>
      </trkpt>
      <trkpt lat="50.12865" lon="3.68407">
        <ele>139.53</ele>
        <time>2020-07-04T12:24:11Z</time>
      </trkpt>
      <trkpt lat="50.12876" lon="3.68428">
        <ele>140.01</ele>
        <time>2020-07-04T12:24:15Z</time>
      </trkpt>
      <trkpt lat="50.12879" lon="3.68435">
        <ele>140.01</ele>
        <time>2020-07-04T12:24:16Z</time>
      </trkpt>
      <trkpt lat="50.12881" lon="3.68442">
        <ele>140.01</ele>
        <time>2020-07-04T12:24:17Z</time>
      </trkpt>
      <trkpt lat="50.12883" lon="3.68449">
        <ele>140.01</ele>
        <time>2020-07-04T12:24:18Z</time>
      </trkpt>
      <trkpt lat="50.12885" lon="3.68455">
        <ele>140.01</ele>
        <time>2020-07-04T12:24:19Z</time>
      </trkpt>
      <trkpt lat="50.12912" lon="3.68537">
        <ele>140.49</ele>
        <time>2020-07-04T12:24:31Z</time>
      </trkpt>
      <trkpt lat="50.12941" lon="3.68632">
        <ele>139.53</ele>
        <time>2020-07-04T12:24:43Z</time>
      </trkpt>
      <trkpt lat="50.12941" lon="3.68641">
        <ele>139.53</ele>
        <time>2020-07-04T12:24:44Z</time>
      </trkpt>
      <trkpt lat="50.12939" lon="3.68647">
        <ele>139.53</ele>
        <time>2020-07-04T12:24:45Z</time>
      </trkpt>
      <trkpt lat="50.12935" lon="3.68653">
        <ele>139.05</ele>
        <time>2020-07-04T12:24:46Z</time>
      </trkpt>
      <trkpt lat="50.1293" lon="3.68659">
        <ele>139.05</ele>
        <time>2020-07-04T12:24:47Z</time>
      </trkpt>
      <trkpt lat="50.12917" lon="3.68677">
        <ele>138.57</ele>
        <time>2020-07-04T12:24:50Z</time>
      </trkpt>
      <trkpt lat="50.12913" lon="3.68683">
        <ele>138.57</ele>
        <time>2020-07-04T12:24:51Z</time>
      </trkpt>
      <trkpt lat="50.1289" lon="3.68712">
        <ele>138.09</ele>
        <time>2020-07-04T12:24:56Z</time>
      </trkpt>
      <trkpt lat="50.12884" lon="3.68713">
        <ele>137.13</ele>
        <time>2020-07-04T12:24:57Z</time>
      </trkpt>
      <trkpt lat="50.12879" lon="3.68711">
        <ele>137.13</ele>
        <time>2020-07-04T12:24:58Z</time>
      </trkpt>
      <trkpt lat="50.12873" lon="3.68706">
        <ele>136.64</ele>
        <time>2020-07-04T12:24:59Z</time>
      </trkpt>
      <trkpt lat="50.12869" lon="3.68701">
        <ele>136.64</ele>
        <time>2020-07-04T12:25:00Z</time>
      </trkpt>
      <trkpt lat="50.12864" lon="3.68695">
        <ele>136.64</ele>
        <time>2020-07-04T12:25:01Z</time>
      </trkpt>
      <trkpt lat="50.12859" lon="3.6869">
        <ele>136.64</ele>
        <time>2020-07-04T12:25:02Z</time>
      </trkpt>
      <trkpt lat="50.1285" lon="3.68679">
        <ele>136.16</ele>
        <time>2020-07-04T12:25:04Z</time>
      </trkpt>
      <trkpt lat="50.12846" lon="3.68673">
        <ele>136.16</ele>
        <time>2020-07-04T12:25:05Z</time>
      </trkpt>
      <trkpt lat="50.1283" lon="3.68654">
        <ele>136.16</ele>
        <time>2020-07-04T12:25:09Z</time>
      </trkpt>
      <trkpt lat="50.12823" lon="3.68644">
        <ele>136.16</ele>
        <time>2020-07-04T12:25:11Z</time>
      </trkpt>
      <trkpt lat="50.12807" lon="3.6862">
        <ele>136.16</ele>
        <time>2020-07-04T12:25:17Z</time>
      </trkpt>
      <trkpt lat="50.12807" lon="3.68616">
        <ele>136.16</ele>
        <time>2020-07-04T12:25:18Z</time>
      </trkpt>
      <trkpt lat="50.12807" lon="3.68613">
        <ele>136.16</ele>
        <time>2020-07-04T12:25:19Z</time>
      </trkpt>
      <trkpt lat="50.12807" lon="3.68607">
        <ele>136.16</ele>
        <time>2020-07-04T12:25:20Z</time>
      </trkpt>
      <trkpt lat="50.12808" lon="3.68602">
        <ele>136.16</ele>
        <time>2020-07-04T12:25:21Z</time>
      </trkpt>
      <trkpt lat="50.12809" lon="3.68597">
        <ele>137.61</ele>
        <time>2020-07-04T12:25:22Z</time>
      </trkpt>
      <trkpt lat="50.1281" lon="3.68592">
        <ele>137.61</ele>
        <time>2020-07-04T12:25:23Z</time>
      </trkpt>
      <trkpt lat="50.1282" lon="3.68549">
        <ele>139.05</ele>
        <time>2020-07-04T12:25:30Z</time>
      </trkpt>
      <trkpt lat="50.12829" lon="3.68503">
        <ele>140.01</ele>
        <time>2020-07-04T12:25:38Z</time>
      </trkpt>
      <trkpt lat="50.12831" lon="3.68497">
        <ele>140.01</ele>
        <time>2020-07-04T12:25:39Z</time>
      </trkpt>
      <trkpt lat="50.12833" lon="3.68492">
        <ele>140.49</ele>
        <time>2020-07-04T12:25:40Z</time>
      </trkpt>
      <trkpt lat="50.12834" lon="3.68485">
        <ele>140.49</ele>
        <time>2020-07-04T12:25:41Z</time>
      </trkpt>
      <trkpt lat="50.12835" lon="3.68479">
        <ele>140.49</ele>
        <time>2020-07-04T12:25:42Z</time>
      </trkpt>
      <trkpt lat="50.12838" lon="3.68467">
        <ele>141.45</ele>
        <time>2020-07-04T12:25:44Z</time>
      </trkpt>
      <trkpt lat="50.12861" lon="3.68398">
        <ele>145.3</ele>
        <time>2020-07-04T12:25:58Z</time>
      </trkpt>
      <trkpt lat="50.12906" lon="3.6834">
        <ele>146.74</ele>
        <time>2020-07-04T12:26:14Z</time>
      </trkpt>
      <trkpt lat="50.12943" lon="3.6832">
        <ele>145.3</ele>
        <time>2020-07-04T12:26:21Z</time>
      </trkpt>
      <trkpt lat="50.12962" lon="3.68314">
        <ele>144.34</ele>
        <time>2020-07-04T12:26:24Z</time>
      </trkpt>
      <trkpt lat="50.12974" lon="3.68313">
        <ele>144.34</ele>
        <time>2020-07-04T12:26:26Z</time>
      </trkpt>
      <trkpt lat="50.1298" lon="3.68309">
        <ele>144.34</ele>
        <time>2020-07-04T12:26:27Z</time>
      </trkpt>
      <trkpt lat="50.12982" lon="3.68302">
        <ele>144.34</ele>
        <time>2020-07-04T12:26:28Z</time>
      </trkpt>
      <trkpt lat="50.12982" lon="3.68294">
        <ele>144.34</ele>
        <time>2020-07-04T12:26:29Z</time>
      </trkpt>
      <trkpt lat="50.1298" lon="3.68287">
        <ele>144.34</ele>
        <time>2020-07-04T12:26:30Z</time>
      </trkpt>
      <trkpt lat="50.12977" lon="3.68283">
        <ele>144.34</ele>
        <time>2020-07-04T12:26:31Z</time>
      </trkpt>
      <trkpt lat="50.12973" lon="3.6828">
        <ele>144.34</ele>
        <time>2020-07-04T12:26:32Z</time>
      </trkpt>
      <trkpt lat="50.12969" lon="3.68276">
        <ele>143.85</ele>
        <time>2020-07-04T12:26:33Z</time>
      </trkpt>
      <trkpt lat="50.12964" lon="3.6827">
        <ele>143.85</ele>
        <time>2020-07-04T12:26:34Z</time>
      </trkpt>
      <trkpt lat="50.12962" lon="3.68265">
        <ele>143.85</ele>
        <time>2020-07-04T12:26:35Z</time>
      </trkpt>
      <trkpt lat="50.1296" lon="3.68258">
        <ele>143.85</ele>
        <time>2020-07-04T12:26:36Z</time>
      </trkpt>
      <trkpt lat="50.12957" lon="3.68251">
        <ele>143.85</ele>
        <time>2020-07-04T12:26:37Z</time>
      </trkpt>
      <trkpt lat="50.1291" lon="3.68115">
        <ele>143.37</ele>
        <time>2020-07-04T12:26:55Z</time>
      </trkpt>
      <trkpt lat="50.12907" lon="3.68101">
        <ele>143.37</ele>
        <time>2020-07-04T12:26:57Z</time>
      </trkpt>
      <trkpt lat="50.12905" lon="3.68086">
        <ele>143.37</ele>
        <time>2020-07-04T12:26:59Z</time>
      </trkpt>
      <trkpt lat="50.12903" lon="3.68071">
        <ele>143.37</ele>
        <time>2020-07-04T12:27:01Z</time>
      </trkpt>
      <trkpt lat="50.12899" lon="3.68016">
        <ele>143.37</ele>
        <time>2020-07-04T12:27:08Z</time>
      </trkpt>
      <trkpt lat="50.12898" lon="3.68009">
        <ele>142.89</ele>
        <time>2020-07-04T12:27:09Z</time>
      </trkpt>
      <trkpt lat="50.12896" lon="3.68002">
        <ele>142.89</ele>
        <time>2020-07-04T12:27:10Z</time>
      </trkpt>
      <trkpt lat="50.12894" lon="3.67995">
        <ele>142.89</ele>
        <time>2020-07-04T12:27:11Z</time>
      </trkpt>
      <trkpt lat="50.12892" lon="3.67987">
        <ele>142.89</ele>
        <time>2020-07-04T12:27:12Z</time>
      </trkpt>
      <trkpt lat="50.12868" lon="3.67878">
        <ele>143.85</ele>
        <time>2020-07-04T12:27:27Z</time>
      </trkpt>
      <trkpt lat="50.12857" lon="3.67756">
        <ele>145.78</ele>
        <time>2020-07-04T12:27:44Z</time>
      </trkpt>
      <trkpt lat="50.12832" lon="3.67664">
        <ele>146.26</ele>
        <time>2020-07-04T12:27:57Z</time>
      </trkpt>
      <trkpt lat="50.12827" lon="3.67642">
        <ele>146.26</ele>
        <time>2020-07-04T12:28:00Z</time>
      </trkpt>
      <trkpt lat="50.12825" lon="3.67634">
        <ele>145.3</ele>
        <time>2020-07-04T12:28:01Z</time>
      </trkpt>
      <trkpt lat="50.12793" lon="3.67513">
        <ele>144.34</ele>
        <time>2020-07-04T12:28:16Z</time>
      </trkpt>
      <trkpt lat="50.12754" lon="3.67364">
        <ele>145.78</ele>
        <time>2020-07-04T12:28:37Z</time>
      </trkpt>
      <trkpt lat="50.1274" lon="3.67268">
        <ele>148.66</ele>
        <time>2020-07-04T12:28:51Z</time>
      </trkpt>
      <trkpt lat="50.12728" lon="3.67181">
        <ele>149.62</ele>
        <time>2020-07-04T12:29:05Z</time>
      </trkpt>
      <trkpt lat="50.12727" lon="3.67174">
        <ele>149.62</ele>
        <time>2020-07-04T12:29:06Z</time>
      </trkpt>
      <trkpt lat="50.12725" lon="3.67167">
        <ele>149.62</ele>
        <time>2020-07-04T12:29:07Z</time>
      </trkpt>
      <trkpt lat="50.12702" lon="3.67126">
        <ele>149.14</ele>
        <time>2020-07-04T12:29:14Z</time>
      </trkpt>
      <trkpt lat="50.12698" lon="3.67121">
        <ele>148.66</ele>
        <time>2020-07-04T12:29:15Z</time>
      </trkpt>
      <trkpt lat="50.12693" lon="3.67117">
        <ele>148.66</ele>
        <time>2020-07-04T12:29:16Z</time>
      </trkpt>
      <trkpt lat="50.12688" lon="3.67114">
        <ele>148.66</ele>
        <time>2020-07-04T12:29:17Z</time>
      </trkpt>
      <trkpt lat="50.12683" lon="3.67111">
        <ele>147.7</ele>
        <time>2020-07-04T12:29:18Z</time>
      </trkpt>
      <trkpt lat="50.12677" lon="3.67109">
        <ele>148.18</ele>
        <time>2020-07-04T12:29:19Z</time>
      </trkpt>
      <trkpt lat="50.12671" lon="3.67108">
        <ele>147.7</ele>
        <time>2020-07-04T12:29:20Z</time>
      </trkpt>
      <trkpt lat="50.12653" lon="3.67105">
        <ele>147.22</ele>
        <time>2020-07-04T12:29:23Z</time>
      </trkpt>
      <trkpt lat="50.12565" lon="3.67109">
        <ele>145.78</ele>
        <time>2020-07-04T12:29:38Z</time>
      </trkpt>
      <trkpt lat="50.12541" lon="3.67105">
        <ele>144.82</ele>
        <time>2020-07-04T12:29:42Z</time>
      </trkpt>
      <trkpt lat="50.12536" lon="3.67103">
        <ele>144.82</ele>
        <time>2020-07-04T12:29:43Z</time>
      </trkpt>
      <trkpt lat="50.12525" lon="3.67096">
        <ele>144.82</ele>
        <time>2020-07-04T12:29:45Z</time>
      </trkpt>
      <trkpt lat="50.1252" lon="3.67093">
        <ele>144.34</ele>
        <time>2020-07-04T12:29:46Z</time>
      </trkpt>
      <trkpt lat="50.12515" lon="3.67089">
        <ele>144.34</ele>
        <time>2020-07-04T12:29:47Z</time>
      </trkpt>
      <trkpt lat="50.12435" lon="3.66997">
        <ele>143.85</ele>
        <time>2020-07-04T12:30:05Z</time>
      </trkpt>
      <trkpt lat="50.12383" lon="3.66959">
        <ele>143.85</ele>
        <time>2020-07-04T12:30:17Z</time>
      </trkpt>
      <trkpt lat="50.12321" lon="3.66933">
        <ele>142.41</ele>
        <time>2020-07-04T12:30:30Z</time>
      </trkpt>
      <trkpt lat="50.12316" lon="3.66929">
        <ele>142.41</ele>
        <time>2020-07-04T12:30:31Z</time>
      </trkpt>
      <trkpt lat="50.12311" lon="3.66924">
        <ele>142.41</ele>
        <time>2020-07-04T12:30:32Z</time>
      </trkpt>
      <trkpt lat="50.12306" lon="3.66919">
        <ele>141.93</ele>
        <time>2020-07-04T12:30:33Z</time>
      </trkpt>
      <trkpt lat="50.12302" lon="3.66913">
        <ele>141.93</ele>
        <time>2020-07-04T12:30:34Z</time>
      </trkpt>
      <trkpt lat="50.12218" lon="3.66837">
        <ele>138.57</ele>
        <time>2020-07-04T12:30:50Z</time>
      </trkpt>
      <trkpt lat="50.12136" lon="3.66782">
        <ele>136.16</ele>
        <time>2020-07-04T12:31:05Z</time>
      </trkpt>
      <trkpt lat="50.12085" lon="3.66686">
        <ele>135.68</ele>
        <time>2020-07-04T12:31:21Z</time>
      </trkpt>
      <trkpt lat="50.1203" lon="3.6658">
        <ele>137.13</ele>
        <time>2020-07-04T12:31:39Z</time>
      </trkpt>
      <trkpt lat="50.11987" lon="3.66492">
        <ele>138.09</ele>
        <time>2020-07-04T12:31:55Z</time>
      </trkpt>
      <trkpt lat="50.11972" lon="3.66465">
        <ele>138.57</ele>
        <time>2020-07-04T12:32:00Z</time>
      </trkpt>
      <trkpt lat="50.11927" lon="3.66382">
        <ele>140.49</ele>
        <time>2020-07-04T12:32:18Z</time>
      </trkpt>
      <trkpt lat="50.11883" lon="3.66302">
        <ele>141.93</ele>
        <time>2020-07-04T12:32:36Z</time>
      </trkpt>
      <trkpt lat="50.1184" lon="3.6622">
        <ele>142.41</ele>
        <time>2020-07-04T12:32:52Z</time>
      </trkpt>
      <trkpt lat="50.11832" lon="3.66197">
        <ele>142.41</ele>
        <time>2020-07-04T12:32:56Z</time>
      </trkpt>
      <trkpt lat="50.11828" lon="3.66185">
        <ele>142.41</ele>
        <time>2020-07-04T12:32:58Z</time>
      </trkpt>
      <trkpt lat="50.11827" lon="3.66179">
        <ele>142.41</ele>
        <time>2020-07-04T12:32:59Z</time>
      </trkpt>
      <trkpt lat="50.11826" lon="3.66173">
        <ele>142.41</ele>
        <time>2020-07-04T12:33:00Z</time>
      </trkpt>
      <trkpt lat="50.11809" lon="3.66079">
        <ele>142.89</ele>
        <time>2020-07-04T12:33:14Z</time>
      </trkpt>
      <trkpt lat="50.11798" lon="3.66019">
        <ele>142.89</ele>
        <time>2020-07-04T12:33:23Z</time>
      </trkpt>
      <trkpt lat="50.11793" lon="3.65954">
        <ele>141.45</ele>
        <time>2020-07-04T12:33:32Z</time>
      </trkpt>
      <trkpt lat="50.11798" lon="3.65815">
        <ele>141.45</ele>
        <time>2020-07-04T12:33:49Z</time>
      </trkpt>
      <trkpt lat="50.1181" lon="3.65694">
        <ele>140.49</ele>
        <time>2020-07-04T12:34:05Z</time>
      </trkpt>
      <trkpt lat="50.11837" lon="3.65572">
        <ele>140.49</ele>
        <time>2020-07-04T12:34:23Z</time>
      </trkpt>
      <trkpt lat="50.11865" lon="3.65463">
        <ele>140.49</ele>
        <time>2020-07-04T12:34:39Z</time>
      </trkpt>
      <trkpt lat="50.1191" lon="3.65359">
        <ele>139.05</ele>
        <time>2020-07-04T12:34:55Z</time>
      </trkpt>
      <trkpt lat="50.11958" lon="3.65244">
        <ele>137.61</ele>
        <time>2020-07-04T12:35:10Z</time>
      </trkpt>
      <trkpt lat="50.11964" lon="3.65207">
        <ele>137.13</ele>
        <time>2020-07-04T12:35:14Z</time>
      </trkpt>
      <trkpt lat="50.11956" lon="3.65108">
        <ele>136.64</ele>
        <time>2020-07-04T12:35:26Z</time>
      </trkpt>
      <trkpt lat="50.11924" lon="3.6504">
        <ele>136.64</ele>
        <time>2020-07-04T12:35:38Z</time>
      </trkpt>
      <trkpt lat="50.1192" lon="3.65036">
        <ele>136.64</ele>
        <time>2020-07-04T12:35:39Z</time>
      </trkpt>
      <trkpt lat="50.11916" lon="3.65032">
        <ele>136.64</ele>
        <time>2020-07-04T12:35:40Z</time>
      </trkpt>
      <trkpt lat="50.11837" lon="3.64959">
        <ele>136.64</ele>
        <time>2020-07-04T12:35:59Z</time>
      </trkpt>
      <trkpt lat="50.11764" lon="3.6489">
        <ele>136.64</ele>
        <time>2020-07-04T12:36:16Z</time>
      </trkpt>
      <trkpt lat="50.11748" lon="3.6487">
        <ele>136.64</ele>
        <time>2020-07-04T12:36:20Z</time>
      </trkpt>
      <trkpt lat="50.11746" lon="3.64865">
        <ele>136.64</ele>
        <time>2020-07-04T12:36:21Z</time>
      </trkpt>
      <trkpt lat="50.11738" lon="3.64846">
        <ele>136.64</ele>
        <time>2020-07-04T12:36:24Z</time>
      </trkpt>
      <trkpt lat="50.11736" lon="3.64839">
        <ele>136.64</ele>
        <time>2020-07-04T12:36:25Z</time>
      </trkpt>
      <trkpt lat="50.11733" lon="3.64824">
        <ele>136.64</ele>
        <time>2020-07-04T12:36:27Z</time>
      </trkpt>
      <trkpt lat="50.11732" lon="3.64817">
        <ele>136.64</ele>
        <time>2020-07-04T12:36:28Z</time>
      </trkpt>
      <trkpt lat="50.11731" lon="3.64809">
        <ele>136.64</ele>
        <time>2020-07-04T12:36:29Z</time>
      </trkpt>
      <trkpt lat="50.11729" lon="3.64794">
        <ele>136.64</ele>
        <time>2020-07-04T12:36:31Z</time>
      </trkpt>
      <trkpt lat="50.11728" lon="3.64771">
        <ele>136.64</ele>
        <time>2020-07-04T12:36:34Z</time>
      </trkpt>
      <trkpt lat="50.11727" lon="3.64757">
        <ele>138.09</ele>
        <time>2020-07-04T12:36:36Z</time>
      </trkpt>
      <trkpt lat="50.1172" lon="3.64658">
        <ele>141.45</ele>
        <time>2020-07-04T12:36:50Z</time>
      </trkpt>
      <trkpt lat="50.11713" lon="3.64559">
        <ele>142.41</ele>
        <time>2020-07-04T12:37:03Z</time>
      </trkpt>
      <trkpt lat="50.11701" lon="3.64422">
        <ele>143.37</ele>
        <time>2020-07-04T12:37:22Z</time>
      </trkpt>
      <trkpt lat="50.11692" lon="3.64299">
        <ele>143.37</ele>
        <time>2020-07-04T12:37:39Z</time>
      </trkpt>
      <trkpt lat="50.11686" lon="3.6421">
        <ele>143.37</ele>
        <time>2020-07-04T12:37:52Z</time>
      </trkpt>
      <trkpt lat="50.11676" lon="3.64077">
        <ele>143.37</ele>
        <time>2020-07-04T12:38:10Z</time>
      </trkpt>
      <trkpt lat="50.11668" lon="3.63987">
        <ele>141.93</ele>
        <time>2020-07-04T12:38:21Z</time>
      </trkpt>
      <trkpt lat="50.11657" lon="3.63859">
        <ele>141.45</ele>
        <time>2020-07-04T12:38:37Z</time>
      </trkpt>
      <trkpt lat="50.11652" lon="3.6378">
        <ele>140.97</ele>
        <time>2020-07-04T12:38:47Z</time>
      </trkpt>
      <trkpt lat="50.11645" lon="3.63702">
        <ele>140.49</ele>
        <time>2020-07-04T12:38:57Z</time>
      </trkpt>
      <trkpt lat="50.11645" lon="3.63695">
        <ele>140.49</ele>
        <time>2020-07-04T12:38:58Z</time>
      </trkpt>
      <trkpt lat="50.11636" lon="3.6357">
        <ele>140.01</ele>
        <time>2020-07-04T12:39:14Z</time>
      </trkpt>
      <trkpt lat="50.1163" lon="3.63479">
        <ele>142.41</ele>
        <time>2020-07-04T12:39:28Z</time>
      </trkpt>
      <trkpt lat="50.11623" lon="3.63393">
        <ele>142.41</ele>
        <time>2020-07-04T12:39:39Z</time>
      </trkpt>
      <trkpt lat="50.11623" lon="3.63385">
        <ele>142.41</ele>
        <time>2020-07-04T12:39:40Z</time>
      </trkpt>
      <trkpt lat="50.11612" lon="3.63258">
        <ele>141.45</ele>
        <time>2020-07-04T12:39:55Z</time>
      </trkpt>
      <trkpt lat="50.11612" lon="3.63251">
        <ele>141.45</ele>
        <time>2020-07-04T12:39:56Z</time>
      </trkpt>
      <trkpt lat="50.11611" lon="3.63243">
        <ele>141.45</ele>
        <time>2020-07-04T12:39:57Z</time>
      </trkpt>
      <trkpt lat="50.11607" lon="3.63176">
        <ele>144.82</ele>
        <time>2020-07-04T12:40:06Z</time>
      </trkpt>
      <trkpt lat="50.11596" lon="3.6306">
        <ele>148.18</ele>
        <time>2020-07-04T12:40:22Z</time>
      </trkpt>
      <trkpt lat="50.11594" lon="3.63045">
        <ele>148.66</ele>
        <time>2020-07-04T12:40:24Z</time>
      </trkpt>
      <trkpt lat="50.11592" lon="3.62997">
        <ele>149.14</ele>
        <time>2020-07-04T12:40:31Z</time>
      </trkpt>
      <trkpt lat="50.11592" lon="3.6299">
        <ele>149.14</ele>
        <time>2020-07-04T12:40:32Z</time>
      </trkpt>
      <trkpt lat="50.11591" lon="3.62969">
        <ele>149.62</ele>
        <time>2020-07-04T12:40:35Z</time>
      </trkpt>
      <trkpt lat="50.11587" lon="3.62919">
        <ele>149.62</ele>
        <time>2020-07-04T12:40:42Z</time>
      </trkpt>
      <trkpt lat="50.11586" lon="3.62912">
        <ele>149.62</ele>
        <time>2020-07-04T12:40:43Z</time>
      </trkpt>
      <trkpt lat="50.11578" lon="3.62824">
        <ele>149.62</ele>
        <time>2020-07-04T12:40:56Z</time>
      </trkpt>
      <trkpt lat="50.11577" lon="3.62818">
        <ele>149.62</ele>
        <time>2020-07-04T12:40:57Z</time>
      </trkpt>
      <trkpt lat="50.11569" lon="3.62698">
        <ele>149.62</ele>
        <time>2020-07-04T12:41:13Z</time>
      </trkpt>
      <trkpt lat="50.11567" lon="3.62673">
        <ele>148.66</ele>
        <time>2020-07-04T12:41:16Z</time>
      </trkpt>
      <trkpt lat="50.11556" lon="3.62546">
        <ele>145.3</ele>
        <time>2020-07-04T12:41:29Z</time>
      </trkpt>
      <trkpt lat="50.11545" lon="3.62391">
        <ele>144.34</ele>
        <time>2020-07-04T12:41:44Z</time>
      </trkpt>
      <trkpt lat="50.11536" lon="3.62287">
        <ele>146.74</ele>
        <time>2020-07-04T12:41:58Z</time>
      </trkpt>
      <trkpt lat="50.11528" lon="3.62173">
        <ele>149.62</ele>
        <time>2020-07-04T12:42:13Z</time>
      </trkpt>
      <trkpt lat="50.1152" lon="3.62066">
        <ele>151.54</ele>
        <time>2020-07-04T12:42:26Z</time>
      </trkpt>
      <trkpt lat="50.11515" lon="3.61998">
        <ele>150.58</ele>
        <time>2020-07-04T12:42:34Z</time>
      </trkpt>
      <trkpt lat="50.11502" lon="3.61844">
        <ele>147.22</ele>
        <time>2020-07-04T12:42:50Z</time>
      </trkpt>
      <trkpt lat="50.1149" lon="3.61686">
        <ele>146.74</ele>
        <time>2020-07-04T12:43:06Z</time>
      </trkpt>
      <trkpt lat="50.1148" lon="3.6153">
        <ele>146.26</ele>
        <time>2020-07-04T12:43:23Z</time>
      </trkpt>
      <trkpt lat="50.11466" lon="3.61347">
        <ele>146.26</ele>
        <time>2020-07-04T12:43:44Z</time>
      </trkpt>
      <trkpt lat="50.11464" lon="3.61307">
        <ele>147.7</ele>
        <time>2020-07-04T12:43:49Z</time>
      </trkpt>
      <trkpt lat="50.11453" lon="3.61177">
        <ele>149.14</ele>
        <time>2020-07-04T12:44:05Z</time>
      </trkpt>
      <trkpt lat="50.11452" lon="3.61161">
        <ele>149.14</ele>
        <time>2020-07-04T12:44:07Z</time>
      </trkpt>
      <trkpt lat="50.11443" lon="3.61043">
        <ele>151.06</ele>
        <time>2020-07-04T12:44:23Z</time>
      </trkpt>
      <trkpt lat="50.11433" lon="3.60908">
        <ele>153.47</ele>
        <time>2020-07-04T12:44:41Z</time>
      </trkpt>
      <trkpt lat="50.11423" lon="3.60781">
        <ele>154.91</ele>
        <time>2020-07-04T12:44:57Z</time>
      </trkpt>
      <trkpt lat="50.1141" lon="3.60625">
        <ele>153.47</ele>
        <time>2020-07-04T12:45:15Z</time>
      </trkpt>
      <trkpt lat="50.11398" lon="3.60484">
        <ele>152.99</ele>
        <time>2020-07-04T12:45:32Z</time>
      </trkpt>
      <trkpt lat="50.11397" lon="3.60468">
        <ele>152.99</ele>
        <time>2020-07-04T12:45:34Z</time>
      </trkpt>
      <trkpt lat="50.11383" lon="3.60321">
        <ele>150.58</ele>
        <time>2020-07-04T12:45:50Z</time>
      </trkpt>
      <trkpt lat="50.11382" lon="3.6031">
        <ele>150.58</ele>
        <time>2020-07-04T12:45:51Z</time>
      </trkpt>
      <trkpt lat="50.11365" lon="3.60165">
        <ele>147.7</ele>
        <time>2020-07-04T12:46:05Z</time>
      </trkpt>
      <trkpt lat="50.1136" lon="3.60116">
        <ele>148.18</ele>
        <time>2020-07-04T12:46:11Z</time>
      </trkpt>
      <trkpt lat="50.11345" lon="3.60031">
        <ele>148.18</ele>
        <time>2020-07-04T12:46:23Z</time>
      </trkpt>
      <trkpt lat="50.11344" lon="3.60016">
        <ele>149.62</ele>
        <time>2020-07-04T12:46:25Z</time>
      </trkpt>
      <trkpt lat="50.11322" lon="3.59877">
        <ele>149.62</ele>
        <time>2020-07-04T12:46:44Z</time>
      </trkpt>
      <trkpt lat="50.11298" lon="3.59761">
        <ele>146.26</ele>
        <time>2020-07-04T12:46:57Z</time>
      </trkpt>
      <trkpt lat="50.11258" lon="3.59602">
        <ele>142.41</ele>
        <time>2020-07-04T12:47:14Z</time>
      </trkpt>
      <trkpt lat="50.11251" lon="3.59575">
        <ele>142.41</ele>
        <time>2020-07-04T12:47:17Z</time>
      </trkpt>
      <trkpt lat="50.1123" lon="3.59517">
        <ele>141.93</ele>
        <time>2020-07-04T12:47:24Z</time>
      </trkpt>
      <trkpt lat="50.11224" lon="3.59501">
        <ele>141.93</ele>
        <time>2020-07-04T12:47:26Z</time>
      </trkpt>
      <trkpt lat="50.1117" lon="3.59386">
        <ele>143.85</ele>
        <time>2020-07-04T12:47:43Z</time>
      </trkpt>
      <trkpt lat="50.11167" lon="3.5938">
        <ele>143.85</ele>
        <time>2020-07-04T12:47:44Z</time>
      </trkpt>
      <trkpt lat="50.11162" lon="3.59368">
        <ele>143.85</ele>
        <time>2020-07-04T12:47:46Z</time>
      </trkpt>
      <trkpt lat="50.11156" lon="3.59356">
        <ele>143.85</ele>
        <time>2020-07-04T12:47:48Z</time>
      </trkpt>
      <trkpt lat="50.11154" lon="3.59349">
        <ele>144.34</ele>
        <time>2020-07-04T12:47:49Z</time>
      </trkpt>
      <trkpt lat="50.1113" lon="3.59219">
        <ele>143.37</ele>
        <time>2020-07-04T12:48:06Z</time>
      </trkpt>
      <trkpt lat="50.11129" lon="3.5921">
        <ele>143.37</ele>
        <time>2020-07-04T12:48:07Z</time>
      </trkpt>
      <trkpt lat="50.11107" lon="3.59062">
        <ele>141.45</ele>
        <time>2020-07-04T12:48:25Z</time>
      </trkpt>
      <trkpt lat="50.11087" lon="3.58923">
        <ele>140.97</ele>
        <time>2020-07-04T12:48:42Z</time>
      </trkpt>
      <trkpt lat="50.1108" lon="3.5887">
        <ele>140.97</ele>
        <time>2020-07-04T12:48:49Z</time>
      </trkpt>
      <trkpt lat="50.11077" lon="3.58838">
        <ele>140.49</ele>
        <time>2020-07-04T12:48:53Z</time>
      </trkpt>
      <trkpt lat="50.11064" lon="3.58721">
        <ele>137.61</ele>
        <time>2020-07-04T12:49:05Z</time>
      </trkpt>
      <trkpt lat="50.11061" lon="3.58699">
        <ele>136.64</ele>
        <time>2020-07-04T12:49:07Z</time>
      </trkpt>
      <trkpt lat="50.11048" lon="3.58576">
        <ele>132.8</ele>
        <time>2020-07-04T12:49:17Z</time>
      </trkpt>
      <trkpt lat="50.11044" lon="3.58458">
        <ele>129.43</ele>
        <time>2020-07-04T12:49:25Z</time>
      </trkpt>
      <trkpt lat="50.11045" lon="3.58386">
        <ele>126.07</ele>
        <time>2020-07-04T12:49:30Z</time>
      </trkpt>
      <trkpt lat="50.11046" lon="3.58371">
        <ele>126.07</ele>
        <time>2020-07-04T12:49:31Z</time>
      </trkpt>
      <trkpt lat="50.11047" lon="3.5828">
        <ele>122.71</ele>
        <time>2020-07-04T12:49:37Z</time>
      </trkpt>
      <trkpt lat="50.11041" lon="3.58216">
        <ele>119.82</ele>
        <time>2020-07-04T12:49:41Z</time>
      </trkpt>
      <trkpt lat="50.11027" lon="3.58153">
        <ele>115.98</ele>
        <time>2020-07-04T12:49:45Z</time>
      </trkpt>
      <trkpt lat="50.11018" lon="3.58121">
        <ele>115.01</ele>
        <time>2020-07-04T12:49:47Z</time>
      </trkpt>
      <trkpt lat="50.11" lon="3.58045">
        <ele>112.13</ele>
        <time>2020-07-04T12:49:52Z</time>
      </trkpt>
      <trkpt lat="50.10994" lon="3.58002">
        <ele>110.69</ele>
        <time>2020-07-04T12:49:55Z</time>
      </trkpt>
      <trkpt lat="50.10992" lon="3.57959">
        <ele>109.25</ele>
        <time>2020-07-04T12:49:58Z</time>
      </trkpt>
      <trkpt lat="50.10997" lon="3.57828">
        <ele>107.32</ele>
        <time>2020-07-04T12:50:09Z</time>
      </trkpt>
      <trkpt lat="50.11004" lon="3.57673">
        <ele>108.29</ele>
        <time>2020-07-04T12:50:25Z</time>
      </trkpt>
      <trkpt lat="50.11002" lon="3.57641">
        <ele>108.77</ele>
        <time>2020-07-04T12:50:29Z</time>
      </trkpt>
      <trkpt lat="50.1098" lon="3.57523">
        <ele>111.17</ele>
        <time>2020-07-04T12:50:46Z</time>
      </trkpt>
      <trkpt lat="50.1095" lon="3.57447">
        <ele>113.09</ele>
        <time>2020-07-04T12:51:01Z</time>
      </trkpt>
      <trkpt lat="50.10925" lon="3.57404">
        <ele>115.5</ele>
        <time>2020-07-04T12:51:13Z</time>
      </trkpt>
      <trkpt lat="50.10904" lon="3.57371">
        <ele>116.46</ele>
        <time>2020-07-04T12:51:23Z</time>
      </trkpt>
      <trkpt lat="50.1088" lon="3.57334">
        <ele>119.34</ele>
        <time>2020-07-04T12:51:35Z</time>
      </trkpt>
      <trkpt lat="50.1085" lon="3.57294">
        <ele>121.74</ele>
        <time>2020-07-04T12:51:48Z</time>
      </trkpt>
      <trkpt lat="50.10832" lon="3.57272">
        <ele>123.19</ele>
        <time>2020-07-04T12:51:56Z</time>
      </trkpt>
      <trkpt lat="50.10789" lon="3.57227">
        <ele>124.63</ele>
        <time>2020-07-04T12:52:13Z</time>
      </trkpt>
      <trkpt lat="50.10755" lon="3.57194">
        <ele>125.11</ele>
        <time>2020-07-04T12:52:26Z</time>
      </trkpt>
      <trkpt lat="50.10714" lon="3.57148">
        <ele>127.03</ele>
        <time>2020-07-04T12:52:41Z</time>
      </trkpt>
      <trkpt lat="50.10682" lon="3.57112">
        <ele>128.95</ele>
        <time>2020-07-04T12:52:53Z</time>
      </trkpt>
      <trkpt lat="50.10655" lon="3.57079">
        <ele>129.92</ele>
        <time>2020-07-04T12:53:05Z</time>
      </trkpt>
      <trkpt lat="50.10624" lon="3.57025">
        <ele>131.36</ele>
        <time>2020-07-04T12:53:20Z</time>
      </trkpt>
      <trkpt lat="50.10601" lon="3.56962">
        <ele>132.8</ele>
        <time>2020-07-04T12:53:35Z</time>
      </trkpt>
      <trkpt lat="50.10575" lon="3.56886">
        <ele>133.76</ele>
        <time>2020-07-04T12:53:52Z</time>
      </trkpt>
      <trkpt lat="50.10541" lon="3.56817">
        <ele>134.72</ele>
        <time>2020-07-04T12:54:08Z</time>
      </trkpt>
      <trkpt lat="50.10497" lon="3.56738">
        <ele>135.68</ele>
        <time>2020-07-04T12:54:24Z</time>
      </trkpt>
      <trkpt lat="50.10474" lon="3.56693">
        <ele>137.13</ele>
        <time>2020-07-04T12:54:33Z</time>
      </trkpt>
      <trkpt lat="50.10447" lon="3.56625">
        <ele>139.05</ele>
        <time>2020-07-04T12:54:45Z</time>
      </trkpt>
      <trkpt lat="50.10417" lon="3.56548">
        <ele>140.49</ele>
        <time>2020-07-04T12:55:02Z</time>
      </trkpt>
      <trkpt lat="50.10415" lon="3.56541">
        <ele>140.97</ele>
        <time>2020-07-04T12:55:04Z</time>
      </trkpt>
      <trkpt lat="50.10414" lon="3.56537">
        <ele>140.97</ele>
        <time>2020-07-04T12:55:05Z</time>
      </trkpt>
      <trkpt lat="50.10412" lon="3.56533">
        <ele>140.97</ele>
        <time>2020-07-04T12:55:06Z</time>
      </trkpt>
      <trkpt lat="50.10411" lon="3.56529">
        <ele>140.97</ele>
        <time>2020-07-04T12:55:07Z</time>
      </trkpt>
      <trkpt lat="50.1041" lon="3.56524">
        <ele>140.97</ele>
        <time>2020-07-04T12:55:08Z</time>
      </trkpt>
      <trkpt lat="50.10409" lon="3.56519">
        <ele>141.45</ele>
        <time>2020-07-04T12:55:09Z</time>
      </trkpt>
      <trkpt lat="50.10394" lon="3.56437">
        <ele>141.45</ele>
        <time>2020-07-04T12:55:24Z</time>
      </trkpt>
      <trkpt lat="50.10378" lon="3.56334">
        <ele>142.41</ele>
        <time>2020-07-04T12:55:43Z</time>
      </trkpt>
      <trkpt lat="50.10368" lon="3.56254">
        <ele>142.89</ele>
        <time>2020-07-04T12:55:58Z</time>
      </trkpt>
      <trkpt lat="50.10366" lon="3.56225">
        <ele>142.89</ele>
        <time>2020-07-04T12:56:03Z</time>
      </trkpt>
      <trkpt lat="50.10364" lon="3.5622">
        <ele>143.85</ele>
        <time>2020-07-04T12:56:04Z</time>
      </trkpt>
      <trkpt lat="50.10362" lon="3.56214">
        <ele>143.85</ele>
        <time>2020-07-04T12:56:05Z</time>
      </trkpt>
      <trkpt lat="50.10359" lon="3.56209">
        <ele>143.85</ele>
        <time>2020-07-04T12:56:06Z</time>
      </trkpt>
      <trkpt lat="50.10356" lon="3.56204">
        <ele>143.85</ele>
        <time>2020-07-04T12:56:07Z</time>
      </trkpt>
      <trkpt lat="50.10351" lon="3.56193">
        <ele>143.85</ele>
        <time>2020-07-04T12:56:09Z</time>
      </trkpt>
      <trkpt lat="50.10349" lon="3.56186">
        <ele>143.85</ele>
        <time>2020-07-04T12:56:10Z</time>
      </trkpt>
      <trkpt lat="50.10342" lon="3.56166">
        <ele>143.37</ele>
        <time>2020-07-04T12:56:13Z</time>
      </trkpt>
      <trkpt lat="50.10339" lon="3.5616">
        <ele>143.37</ele>
        <time>2020-07-04T12:56:14Z</time>
      </trkpt>
      <trkpt lat="50.10334" lon="3.56147">
        <ele>143.37</ele>
        <time>2020-07-04T12:56:16Z</time>
      </trkpt>
      <trkpt lat="50.10332" lon="3.5614">
        <ele>143.37</ele>
        <time>2020-07-04T12:56:17Z</time>
      </trkpt>
      <trkpt lat="50.1033" lon="3.56134">
        <ele>141.93</ele>
        <time>2020-07-04T12:56:18Z</time>
      </trkpt>
      <trkpt lat="50.10328" lon="3.56127">
        <ele>141.93</ele>
        <time>2020-07-04T12:56:19Z</time>
      </trkpt>
      <trkpt lat="50.10323" lon="3.56103">
        <ele>143.37</ele>
        <time>2020-07-04T12:56:23Z</time>
      </trkpt>
      <trkpt lat="50.1032" lon="3.56091">
        <ele>143.37</ele>
        <time>2020-07-04T12:56:25Z</time>
      </trkpt>
      <trkpt lat="50.10319" lon="3.56086">
        <ele>143.37</ele>
        <time>2020-07-04T12:56:26Z</time>
      </trkpt>
      <trkpt lat="50.10315" lon="3.56068">
        <ele>143.37</ele>
        <time>2020-07-04T12:56:29Z</time>
      </trkpt>
      <trkpt lat="50.10313" lon="3.56062">
        <ele>141.93</ele>
        <time>2020-07-04T12:56:30Z</time>
      </trkpt>
      <trkpt lat="50.10312" lon="3.56056">
        <ele>141.93</ele>
        <time>2020-07-04T12:56:31Z</time>
      </trkpt>
      <trkpt lat="50.1031" lon="3.56051">
        <ele>141.93</ele>
        <time>2020-07-04T12:56:32Z</time>
      </trkpt>
      <trkpt lat="50.10308" lon="3.56045">
        <ele>141.93</ele>
        <time>2020-07-04T12:56:33Z</time>
      </trkpt>
      <trkpt lat="50.10307" lon="3.5604">
        <ele>141.93</ele>
        <time>2020-07-04T12:56:34Z</time>
      </trkpt>
      <trkpt lat="50.10305" lon="3.56035">
        <ele>141.93</ele>
        <time>2020-07-04T12:56:35Z</time>
      </trkpt>
      <trkpt lat="50.10304" lon="3.56029">
        <ele>141.93</ele>
        <time>2020-07-04T12:56:36Z</time>
      </trkpt>
      <trkpt lat="50.10302" lon="3.56024">
        <ele>140.97</ele>
        <time>2020-07-04T12:56:37Z</time>
      </trkpt>
      <trkpt lat="50.10301" lon="3.56018">
        <ele>140.97</ele>
        <time>2020-07-04T12:56:38Z</time>
      </trkpt>
      <trkpt lat="50.10299" lon="3.56012">
        <ele>140.97</ele>
        <time>2020-07-04T12:56:39Z</time>
      </trkpt>
      <trkpt lat="50.10291" lon="3.55986">
        <ele>140.97</ele>
        <time>2020-07-04T12:56:43Z</time>
      </trkpt>
      <trkpt lat="50.10289" lon="3.55979">
        <ele>140.49</ele>
        <time>2020-07-04T12:56:44Z</time>
      </trkpt>
      <trkpt lat="50.10287" lon="3.55973">
        <ele>139.53</ele>
        <time>2020-07-04T12:56:45Z</time>
      </trkpt>
      <trkpt lat="50.10285" lon="3.55967">
        <ele>139.53</ele>
        <time>2020-07-04T12:56:46Z</time>
      </trkpt>
      <trkpt lat="50.10283" lon="3.5596">
        <ele>139.53</ele>
        <time>2020-07-04T12:56:47Z</time>
      </trkpt>
      <trkpt lat="50.10281" lon="3.55954">
        <ele>139.53</ele>
        <time>2020-07-04T12:56:48Z</time>
      </trkpt>
      <trkpt lat="50.1028" lon="3.55948">
        <ele>139.53</ele>
        <time>2020-07-04T12:56:49Z</time>
      </trkpt>
      <trkpt lat="50.10249" lon="3.55844">
        <ele>137.61</ele>
        <time>2020-07-04T12:57:03Z</time>
      </trkpt>
      <trkpt lat="50.10245" lon="3.55836">
        <ele>137.13</ele>
        <time>2020-07-04T12:57:04Z</time>
      </trkpt>
      <trkpt lat="50.10243" lon="3.55828">
        <ele>137.13</ele>
        <time>2020-07-04T12:57:05Z</time>
      </trkpt>
      <trkpt lat="50.1022" lon="3.55749">
        <ele>133.76</ele>
        <time>2020-07-04T12:57:14Z</time>
      </trkpt>
      <trkpt lat="50.10195" lon="3.55661">
        <ele>130.4</ele>
        <time>2020-07-04T12:57:23Z</time>
      </trkpt>
      <trkpt lat="50.10193" lon="3.55654">
        <ele>130.4</ele>
        <time>2020-07-04T12:57:24Z</time>
      </trkpt>
      <trkpt lat="50.1019" lon="3.55647">
        <ele>129.43</ele>
        <time>2020-07-04T12:57:25Z</time>
      </trkpt>
      <trkpt lat="50.10187" lon="3.55638">
        <ele>128.95</ele>
        <time>2020-07-04T12:57:28Z</time>
      </trkpt>
      <trkpt lat="50.10187" lon="3.55636">
        <ele>128.95</ele>
        <time>2020-07-04T12:57:29Z</time>
      </trkpt>
      <trkpt lat="50.10186" lon="3.55635">
        <ele>130.4</ele>
        <time>2020-07-04T12:57:35Z</time>
      </trkpt>
      <trkpt lat="50.1019" lon="3.55613">
        <ele>128.47</ele>
        <time>2020-07-04T12:57:45Z</time>
      </trkpt>
      <trkpt lat="50.10217" lon="3.55521">
        <ele>125.59</ele>
        <time>2020-07-04T12:57:56Z</time>
      </trkpt>
      <trkpt lat="50.1025" lon="3.55412">
        <ele>122.22</ele>
        <time>2020-07-04T12:58:07Z</time>
      </trkpt>
      <trkpt lat="50.10274" lon="3.55336">
        <ele>119.34</ele>
        <time>2020-07-04T12:58:14Z</time>
      </trkpt>
      <trkpt lat="50.10308" lon="3.55227">
        <ele>115.98</ele>
        <time>2020-07-04T12:58:24Z</time>
      </trkpt>
      <trkpt lat="50.10326" lon="3.55168">
        <ele>113.57</ele>
        <time>2020-07-04T12:58:30Z</time>
      </trkpt>
      <trkpt lat="50.1034" lon="3.55064">
        <ele>110.21</ele>
        <time>2020-07-04T12:58:39Z</time>
      </trkpt>
      <trkpt lat="50.1036" lon="3.54918">
        <ele>108.77</ele>
        <time>2020-07-04T12:58:52Z</time>
      </trkpt>
      <trkpt lat="50.10364" lon="3.54898">
        <ele>110.21</ele>
        <time>2020-07-04T12:58:54Z</time>
      </trkpt>
      <trkpt lat="50.10365" lon="3.54888">
        <ele>110.21</ele>
        <time>2020-07-04T12:58:55Z</time>
      </trkpt>
      <trkpt lat="50.10371" lon="3.54852">
        <ele>110.69</ele>
        <time>2020-07-04T12:58:59Z</time>
      </trkpt>
      <trkpt lat="50.10389" lon="3.54797">
        <ele>112.61</ele>
        <time>2020-07-04T12:59:06Z</time>
      </trkpt>
      <trkpt lat="50.10403" lon="3.54742">
        <ele>114.53</ele>
        <time>2020-07-04T12:59:12Z</time>
      </trkpt>
      <trkpt lat="50.10405" lon="3.54734">
        <ele>114.53</ele>
        <time>2020-07-04T12:59:13Z</time>
      </trkpt>
      <trkpt lat="50.10437" lon="3.54618">
        <ele>115.01</ele>
        <time>2020-07-04T12:59:27Z</time>
      </trkpt>
      <trkpt lat="50.10438" lon="3.54609">
        <ele>115.01</ele>
        <time>2020-07-04T12:59:28Z</time>
      </trkpt>
      <trkpt lat="50.1044" lon="3.546">
        <ele>115.01</ele>
        <time>2020-07-04T12:59:29Z</time>
      </trkpt>
      <trkpt lat="50.10447" lon="3.5457">
        <ele>113.57</ele>
        <time>2020-07-04T12:59:33Z</time>
      </trkpt>
      <trkpt lat="50.1045" lon="3.54563">
        <ele>113.57</ele>
        <time>2020-07-04T12:59:34Z</time>
      </trkpt>
      <trkpt lat="50.10453" lon="3.54557">
        <ele>113.57</ele>
        <time>2020-07-04T12:59:35Z</time>
      </trkpt>
      <trkpt lat="50.10477" lon="3.54519">
        <ele>112.61</ele>
        <time>2020-07-04T12:59:41Z</time>
      </trkpt>
      <trkpt lat="50.10481" lon="3.54512">
        <ele>112.61</ele>
        <time>2020-07-04T12:59:42Z</time>
      </trkpt>
      <trkpt lat="50.10527" lon="3.54436">
        <ele>111.17</ele>
        <time>2020-07-04T12:59:53Z</time>
      </trkpt>
      <trkpt lat="50.10554" lon="3.54382">
        <ele>109.25</ele>
        <time>2020-07-04T13:00:01Z</time>
      </trkpt>
      <trkpt lat="50.10583" lon="3.54341">
        <ele>106.36</ele>
        <time>2020-07-04T13:00:09Z</time>
      </trkpt>
      <trkpt lat="50.10619" lon="3.54319">
        <ele>103</ele>
        <time>2020-07-04T13:00:20Z</time>
      </trkpt>
      <trkpt lat="50.10629" lon="3.54311">
        <ele>102.52</ele>
        <time>2020-07-04T13:00:22Z</time>
      </trkpt>
      <trkpt lat="50.10634" lon="3.54306">
        <ele>102.52</ele>
        <time>2020-07-04T13:00:23Z</time>
      </trkpt>
      <trkpt lat="50.10663" lon="3.54277">
        <ele>100.11</ele>
        <time>2020-07-04T13:00:28Z</time>
      </trkpt>
      <trkpt lat="50.1068" lon="3.5426">
        <ele>98.19</ele>
        <time>2020-07-04T13:00:31Z</time>
      </trkpt>
      <trkpt lat="50.10735" lon="3.54206">
        <ele>94.83</ele>
        <time>2020-07-04T13:00:40Z</time>
      </trkpt>
      <trkpt lat="50.10755" lon="3.54191">
        <ele>93.87</ele>
        <time>2020-07-04T13:00:43Z</time>
      </trkpt>
      <trkpt lat="50.10763" lon="3.54189">
        <ele>93.87</ele>
        <time>2020-07-04T13:00:44Z</time>
      </trkpt>
      <trkpt lat="50.10771" lon="3.54186">
        <ele>93.39</ele>
        <time>2020-07-04T13:00:45Z</time>
      </trkpt>
      <trkpt lat="50.10778" lon="3.54183">
        <ele>93.39</ele>
        <time>2020-07-04T13:00:46Z</time>
      </trkpt>
      <trkpt lat="50.10786" lon="3.54181">
        <ele>93.39</ele>
        <time>2020-07-04T13:00:47Z</time>
      </trkpt>
      <trkpt lat="50.10816" lon="3.54173">
        <ele>92.9</ele>
        <time>2020-07-04T13:00:51Z</time>
      </trkpt>
      <trkpt lat="50.10824" lon="3.54176">
        <ele>92.9</ele>
        <time>2020-07-04T13:00:52Z</time>
      </trkpt>
      <trkpt lat="50.10912" lon="3.54218">
        <ele>91.46</ele>
        <time>2020-07-04T13:01:06Z</time>
      </trkpt>
      <trkpt lat="50.10991" lon="3.54239">
        <ele>91.46</ele>
        <time>2020-07-04T13:01:20Z</time>
      </trkpt>
      <trkpt lat="50.10996" lon="3.5424">
        <ele>91.46</ele>
        <time>2020-07-04T13:01:21Z</time>
      </trkpt>
      <trkpt lat="50.11002" lon="3.54242">
        <ele>91.46</ele>
        <time>2020-07-04T13:01:22Z</time>
      </trkpt>
      <trkpt lat="50.1109" lon="3.54261">
        <ele>91.46</ele>
        <time>2020-07-04T13:01:38Z</time>
      </trkpt>
      <trkpt lat="50.11171" lon="3.54284">
        <ele>93.87</ele>
        <time>2020-07-04T13:01:52Z</time>
      </trkpt>
      <trkpt lat="50.11176" lon="3.54288">
        <ele>94.35</ele>
        <time>2020-07-04T13:01:53Z</time>
      </trkpt>
      <trkpt lat="50.11259" lon="3.54368">
        <ele>96.27</ele>
        <time>2020-07-04T13:02:10Z</time>
      </trkpt>
      <trkpt lat="50.11265" lon="3.54372">
        <ele>96.75</ele>
        <time>2020-07-04T13:02:11Z</time>
      </trkpt>
      <trkpt lat="50.1127" lon="3.54376">
        <ele>96.75</ele>
        <time>2020-07-04T13:02:12Z</time>
      </trkpt>
      <trkpt lat="50.11276" lon="3.54379">
        <ele>97.23</ele>
        <time>2020-07-04T13:02:13Z</time>
      </trkpt>
      <trkpt lat="50.11281" lon="3.54381">
        <ele>97.23</ele>
        <time>2020-07-04T13:02:14Z</time>
      </trkpt>
      <trkpt lat="50.11287" lon="3.54382">
        <ele>97.23</ele>
        <time>2020-07-04T13:02:15Z</time>
      </trkpt>
      <trkpt lat="50.11292" lon="3.54383">
        <ele>97.71</ele>
        <time>2020-07-04T13:02:16Z</time>
      </trkpt>
      <trkpt lat="50.11298" lon="3.54382">
        <ele>97.71</ele>
        <time>2020-07-04T13:02:17Z</time>
      </trkpt>
      <trkpt lat="50.11304" lon="3.54381">
        <ele>98.19</ele>
        <time>2020-07-04T13:02:18Z</time>
      </trkpt>
      <trkpt lat="50.1131" lon="3.54379">
        <ele>98.19</ele>
        <time>2020-07-04T13:02:19Z</time>
      </trkpt>
      <trkpt lat="50.11321" lon="3.54375">
        <ele>98.19</ele>
        <time>2020-07-04T13:02:21Z</time>
      </trkpt>
      <trkpt lat="50.11355" lon="3.54357">
        <ele>100.11</ele>
        <time>2020-07-04T13:02:28Z</time>
      </trkpt>
      <trkpt lat="50.11361" lon="3.54355">
        <ele>100.11</ele>
        <time>2020-07-04T13:02:29Z</time>
      </trkpt>
      <trkpt lat="50.11411" lon="3.54331">
        <ele>102.04</ele>
        <time>2020-07-04T13:02:41Z</time>
      </trkpt>
      <trkpt lat="50.1147" lon="3.54298">
        <ele>103</ele>
        <time>2020-07-04T13:02:56Z</time>
      </trkpt>
      <trkpt lat="50.11514" lon="3.54268">
        <ele>101.56</ele>
        <time>2020-07-04T13:03:06Z</time>
      </trkpt>
      <trkpt lat="50.11549" lon="3.54244">
        <ele>100.11</ele>
        <time>2020-07-04T13:03:12Z</time>
      </trkpt>
      <trkpt lat="50.1156" lon="3.54235">
        <ele>99.63</ele>
        <time>2020-07-04T13:03:14Z</time>
      </trkpt>
      <trkpt lat="50.11642" lon="3.5418">
        <ele>96.27</ele>
        <time>2020-07-04T13:03:26Z</time>
      </trkpt>
      <trkpt lat="50.1165" lon="3.54176">
        <ele>96.27</ele>
        <time>2020-07-04T13:03:27Z</time>
      </trkpt>
      <trkpt lat="50.11713" lon="3.54156">
        <ele>93.39</ele>
        <time>2020-07-04T13:03:34Z</time>
      </trkpt>
      <trkpt lat="50.11742" lon="3.54146">
        <ele>91.46</ele>
        <time>2020-07-04T13:03:37Z</time>
      </trkpt>
      <trkpt lat="50.11825" lon="3.54119">
        <ele>87.62</ele>
        <time>2020-07-04T13:03:45Z</time>
      </trkpt>
      <trkpt lat="50.11904" lon="3.54094">
        <ele>85.69</ele>
        <time>2020-07-04T13:03:55Z</time>
      </trkpt>
      <trkpt lat="50.1192" lon="3.5409">
        <ele>85.21</ele>
        <time>2020-07-04T13:03:58Z</time>
      </trkpt>
      <trkpt lat="50.11925" lon="3.54091">
        <ele>85.21</ele>
        <time>2020-07-04T13:03:59Z</time>
      </trkpt>
      <trkpt lat="50.1193" lon="3.54094">
        <ele>85.21</ele>
        <time>2020-07-04T13:04:00Z</time>
      </trkpt>
      <trkpt lat="50.11934" lon="3.54099">
        <ele>84.73</ele>
        <time>2020-07-04T13:04:01Z</time>
      </trkpt>
      <trkpt lat="50.11936" lon="3.54104">
        <ele>84.73</ele>
        <time>2020-07-04T13:04:02Z</time>
      </trkpt>
      <trkpt lat="50.11939" lon="3.54111">
        <ele>84.73</ele>
        <time>2020-07-04T13:04:03Z</time>
      </trkpt>
      <trkpt lat="50.11943" lon="3.54119">
        <ele>84.73</ele>
        <time>2020-07-04T13:04:04Z</time>
      </trkpt>
      <trkpt lat="50.11993" lon="3.54202">
        <ele>84.25</ele>
        <time>2020-07-04T13:04:16Z</time>
      </trkpt>
      <trkpt lat="50.1201" lon="3.54216">
        <ele>85.69</ele>
        <time>2020-07-04T13:04:19Z</time>
      </trkpt>
      <trkpt lat="50.12015" lon="3.54219">
        <ele>85.69</ele>
        <time>2020-07-04T13:04:20Z</time>
      </trkpt>
      <trkpt lat="50.12033" lon="3.54228">
        <ele>86.18</ele>
        <time>2020-07-04T13:04:23Z</time>
      </trkpt>
      <trkpt lat="50.12039" lon="3.54232">
        <ele>86.18</ele>
        <time>2020-07-04T13:04:24Z</time>
      </trkpt>
      <trkpt lat="50.12043" lon="3.5424">
        <ele>86.18</ele>
        <time>2020-07-04T13:04:25Z</time>
      </trkpt>
      <trkpt lat="50.12046" lon="3.5425">
        <ele>86.18</ele>
        <time>2020-07-04T13:04:26Z</time>
      </trkpt>
      <trkpt lat="50.12047" lon="3.54259">
        <ele>86.18</ele>
        <time>2020-07-04T13:04:27Z</time>
      </trkpt>
      <trkpt lat="50.12047" lon="3.5427">
        <ele>86.18</ele>
        <time>2020-07-04T13:04:28Z</time>
      </trkpt>
      <trkpt lat="50.12048" lon="3.5429">
        <ele>84.73</ele>
        <time>2020-07-04T13:04:30Z</time>
      </trkpt>
      <trkpt lat="50.12046" lon="3.54319">
        <ele>84.73</ele>
        <time>2020-07-04T13:04:33Z</time>
      </trkpt>
      <trkpt lat="50.12044" lon="3.54328">
        <ele>84.73</ele>
        <time>2020-07-04T13:04:34Z</time>
      </trkpt>
      <trkpt lat="50.12042" lon="3.54336">
        <ele>84.73</ele>
        <time>2020-07-04T13:04:35Z</time>
      </trkpt>
      <trkpt lat="50.12039" lon="3.54343">
        <ele>84.73</ele>
        <time>2020-07-04T13:04:36Z</time>
      </trkpt>
      <trkpt lat="50.12035" lon="3.5435">
        <ele>84.73</ele>
        <time>2020-07-04T13:04:37Z</time>
      </trkpt>
      <trkpt lat="50.1203" lon="3.54355">
        <ele>84.73</ele>
        <time>2020-07-04T13:04:38Z</time>
      </trkpt>
      <trkpt lat="50.12026" lon="3.54359">
        <ele>84.73</ele>
        <time>2020-07-04T13:04:39Z</time>
      </trkpt>
      <trkpt lat="50.12022" lon="3.54363">
        <ele>84.73</ele>
        <time>2020-07-04T13:04:40Z</time>
      </trkpt>
      <trkpt lat="50.12017" lon="3.54367">
        <ele>84.73</ele>
        <time>2020-07-04T13:04:41Z</time>
      </trkpt>
      <trkpt lat="50.12012" lon="3.54369">
        <ele>84.73</ele>
        <time>2020-07-04T13:04:42Z</time>
      </trkpt>
      <trkpt lat="50.12008" lon="3.54371">
        <ele>84.73</ele>
        <time>2020-07-04T13:04:43Z</time>
      </trkpt>
      <trkpt lat="50.12004" lon="3.54373">
        <ele>84.73</ele>
        <time>2020-07-04T13:04:44Z</time>
      </trkpt>
      <trkpt lat="50.12" lon="3.54374">
        <ele>83.77</ele>
        <time>2020-07-04T13:04:45Z</time>
      </trkpt>
      <trkpt lat="50.11974" lon="3.54386">
        <ele>85.21</ele>
        <time>2020-07-04T13:04:52Z</time>
      </trkpt>
      <trkpt lat="50.11943" lon="3.54403">
        <ele>86.66</ele>
        <time>2020-07-04T13:05:00Z</time>
      </trkpt>
      <trkpt lat="50.11939" lon="3.54408">
        <ele>86.66</ele>
        <time>2020-07-04T13:05:01Z</time>
      </trkpt>
      <trkpt lat="50.11937" lon="3.54413">
        <ele>86.66</ele>
        <time>2020-07-04T13:05:02Z</time>
      </trkpt>
      <trkpt lat="50.11936" lon="3.54419">
        <ele>87.14</ele>
        <time>2020-07-04T13:05:03Z</time>
      </trkpt>
      <trkpt lat="50.11935" lon="3.54426">
        <ele>87.14</ele>
        <time>2020-07-04T13:05:04Z</time>
      </trkpt>
      <trkpt lat="50.11929" lon="3.54564">
        <ele>88.1</ele>
        <time>2020-07-04T13:05:23Z</time>
      </trkpt>
      <trkpt lat="50.11928" lon="3.54581">
        <ele>87.14</ele>
        <time>2020-07-04T13:05:25Z</time>
      </trkpt>
      <trkpt lat="50.11927" lon="3.54589">
        <ele>87.14</ele>
        <time>2020-07-04T13:05:26Z</time>
      </trkpt>
      <trkpt lat="50.11926" lon="3.54597">
        <ele>87.14</ele>
        <time>2020-07-04T13:05:27Z</time>
      </trkpt>
      <trkpt lat="50.11927" lon="3.54623">
        <ele>87.14</ele>
        <time>2020-07-04T13:05:30Z</time>
      </trkpt>
      <trkpt lat="50.11928" lon="3.5463">
        <ele>87.14</ele>
        <time>2020-07-04T13:05:31Z</time>
      </trkpt>
      <trkpt lat="50.11931" lon="3.54638">
        <ele>87.14</ele>
        <time>2020-07-04T13:05:32Z</time>
      </trkpt>
      <trkpt lat="50.11936" lon="3.54653">
        <ele>88.58</ele>
        <time>2020-07-04T13:05:34Z</time>
      </trkpt>
      <trkpt lat="50.11942" lon="3.54669">
        <ele>88.58</ele>
        <time>2020-07-04T13:05:36Z</time>
      </trkpt>
      <trkpt lat="50.11945" lon="3.54677">
        <ele>88.58</ele>
        <time>2020-07-04T13:05:37Z</time>
      </trkpt>
      <trkpt lat="50.11965" lon="3.54711">
        <ele>88.58</ele>
        <time>2020-07-04T13:05:42Z</time>
      </trkpt>
      <trkpt lat="50.11974" lon="3.54722">
        <ele>88.58</ele>
        <time>2020-07-04T13:05:44Z</time>
      </trkpt>
      <trkpt lat="50.11981" lon="3.54732">
        <ele>89.06</ele>
        <time>2020-07-04T13:05:46Z</time>
      </trkpt>
      <trkpt lat="50.11989" lon="3.54742">
        <ele>89.06</ele>
        <time>2020-07-04T13:05:48Z</time>
      </trkpt>
      <trkpt lat="50.11993" lon="3.54748">
        <ele>89.54</ele>
        <time>2020-07-04T13:05:49Z</time>
      </trkpt>
      <trkpt lat="50.12006" lon="3.54767">
        <ele>90.02</ele>
        <time>2020-07-04T13:05:53Z</time>
      </trkpt>
      <trkpt lat="50.12018" lon="3.54786">
        <ele>90.5</ele>
        <time>2020-07-04T13:05:57Z</time>
      </trkpt>
      <trkpt lat="50.12021" lon="3.54791">
        <ele>90.98</ele>
        <time>2020-07-04T13:05:58Z</time>
      </trkpt>
      <trkpt lat="50.12029" lon="3.54808">
        <ele>91.46</ele>
        <time>2020-07-04T13:06:01Z</time>
      </trkpt>
      <trkpt lat="50.12057" lon="3.54924">
        <ele>91.46</ele>
        <time>2020-07-04T13:06:17Z</time>
      </trkpt>
      <trkpt lat="50.1207" lon="3.54977">
        <ele>91.94</ele>
        <time>2020-07-04T13:06:25Z</time>
      </trkpt>
      <trkpt lat="50.12072" lon="3.54984">
        <ele>91.94</ele>
        <time>2020-07-04T13:06:26Z</time>
      </trkpt>
      <trkpt lat="50.12074" lon="3.5499">
        <ele>91.94</ele>
        <time>2020-07-04T13:06:27Z</time>
      </trkpt>
      <trkpt lat="50.12101" lon="3.55114">
        <ele>93.39</ele>
        <time>2020-07-04T13:06:46Z</time>
      </trkpt>
      <trkpt lat="50.1213" lon="3.55239">
        <ele>91.46</ele>
        <time>2020-07-04T13:07:03Z</time>
      </trkpt>
      <trkpt lat="50.12141" lon="3.55386">
        <ele>91.46</ele>
        <time>2020-07-04T13:07:19Z</time>
      </trkpt>
      <trkpt lat="50.1214" lon="3.55405">
        <ele>91.46</ele>
        <time>2020-07-04T13:07:21Z</time>
      </trkpt>
      <trkpt lat="50.1214" lon="3.55432">
        <ele>91.46</ele>
        <time>2020-07-04T13:07:24Z</time>
      </trkpt>
      <trkpt lat="50.12141" lon="3.55441">
        <ele>91.46</ele>
        <time>2020-07-04T13:07:25Z</time>
      </trkpt>
      <trkpt lat="50.12142" lon="3.55449">
        <ele>91.46</ele>
        <time>2020-07-04T13:07:26Z</time>
      </trkpt>
      <trkpt lat="50.12144" lon="3.55457">
        <ele>91.46</ele>
        <time>2020-07-04T13:07:27Z</time>
      </trkpt>
      <trkpt lat="50.12145" lon="3.55465">
        <ele>91.46</ele>
        <time>2020-07-04T13:07:28Z</time>
      </trkpt>
      <trkpt lat="50.12147" lon="3.55472">
        <ele>91.46</ele>
        <time>2020-07-04T13:07:29Z</time>
      </trkpt>
      <trkpt lat="50.1216" lon="3.5554">
        <ele>92.9</ele>
        <time>2020-07-04T13:07:38Z</time>
      </trkpt>
      <trkpt lat="50.12162" lon="3.55547">
        <ele>92.9</ele>
        <time>2020-07-04T13:07:39Z</time>
      </trkpt>
      <trkpt lat="50.12169" lon="3.55568">
        <ele>93.87</ele>
        <time>2020-07-04T13:07:42Z</time>
      </trkpt>
      <trkpt lat="50.12194" lon="3.55625">
        <ele>96.27</ele>
        <time>2020-07-04T13:07:51Z</time>
      </trkpt>
      <trkpt lat="50.12197" lon="3.5563">
        <ele>96.27</ele>
        <time>2020-07-04T13:07:52Z</time>
      </trkpt>
      <trkpt lat="50.12226" lon="3.55669">
        <ele>98.19</ele>
        <time>2020-07-04T13:08:01Z</time>
      </trkpt>
      <trkpt lat="50.12253" lon="3.55688">
        <ele>100.6</ele>
        <time>2020-07-04T13:08:09Z</time>
      </trkpt>
      <trkpt lat="50.12283" lon="3.55706">
        <ele>103.48</ele>
        <time>2020-07-04T13:08:19Z</time>
      </trkpt>
      <trkpt lat="50.12314" lon="3.5572">
        <ele>106.84</ele>
        <time>2020-07-04T13:08:29Z</time>
      </trkpt>
      <trkpt lat="50.1234" lon="3.55738">
        <ele>109.73</ele>
        <time>2020-07-04T13:08:37Z</time>
      </trkpt>
      <trkpt lat="50.1236" lon="3.55768">
        <ele>111.65</ele>
        <time>2020-07-04T13:08:48Z</time>
      </trkpt>
      <trkpt lat="50.12382" lon="3.55806">
        <ele>114.05</ele>
        <time>2020-07-04T13:09:02Z</time>
      </trkpt>
      <trkpt lat="50.1241" lon="3.55827">
        <ele>116.46</ele>
        <time>2020-07-04T13:09:13Z</time>
      </trkpt>
      <trkpt lat="50.12454" lon="3.55854">
        <ele>118.86</ele>
        <time>2020-07-04T13:09:30Z</time>
      </trkpt>
      <trkpt lat="50.12494" lon="3.55882">
        <ele>120.3</ele>
        <time>2020-07-04T13:09:44Z</time>
      </trkpt>
      <trkpt lat="50.12498" lon="3.55885">
        <ele>120.3</ele>
        <time>2020-07-04T13:09:45Z</time>
      </trkpt>
      <trkpt lat="50.1251" lon="3.55893">
        <ele>121.26</ele>
        <time>2020-07-04T13:09:48Z</time>
      </trkpt>
      <trkpt lat="50.12514" lon="3.55896">
        <ele>121.26</ele>
        <time>2020-07-04T13:09:49Z</time>
      </trkpt>
      <trkpt lat="50.12518" lon="3.55899">
        <ele>121.26</ele>
        <time>2020-07-04T13:09:50Z</time>
      </trkpt>
      <trkpt lat="50.12565" lon="3.55941">
        <ele>123.67</ele>
        <time>2020-07-04T13:10:05Z</time>
      </trkpt>
      <trkpt lat="50.12607" lon="3.55979">
        <ele>126.55</ele>
        <time>2020-07-04T13:10:19Z</time>
      </trkpt>
      <trkpt lat="50.12659" lon="3.56021">
        <ele>128.47</ele>
        <time>2020-07-04T13:10:35Z</time>
      </trkpt>
      <trkpt lat="50.12694" lon="3.56056">
        <ele>130.88</ele>
        <time>2020-07-04T13:10:48Z</time>
      </trkpt>
      <trkpt lat="50.12714" lon="3.56072">
        <ele>131.36</ele>
        <time>2020-07-04T13:10:54Z</time>
      </trkpt>
      <trkpt lat="50.12782" lon="3.56127">
        <ele>131.36</ele>
        <time>2020-07-04T13:11:10Z</time>
      </trkpt>
      <trkpt lat="50.12858" lon="3.5621">
        <ele>133.28</ele>
        <time>2020-07-04T13:11:29Z</time>
      </trkpt>
      <trkpt lat="50.12903" lon="3.56277">
        <ele>134.24</ele>
        <time>2020-07-04T13:11:45Z</time>
      </trkpt>
      <trkpt lat="50.12917" lon="3.563">
        <ele>134.24</ele>
        <time>2020-07-04T13:11:50Z</time>
      </trkpt>
      <trkpt lat="50.12945" lon="3.56339">
        <ele>135.2</ele>
        <time>2020-07-04T13:11:59Z</time>
      </trkpt>
      <trkpt lat="50.12948" lon="3.56342">
        <ele>135.2</ele>
        <time>2020-07-04T13:12:00Z</time>
      </trkpt>
      <trkpt lat="50.12961" lon="3.56361">
        <ele>135.68</ele>
        <time>2020-07-04T13:12:04Z</time>
      </trkpt>
      <trkpt lat="50.12964" lon="3.56366">
        <ele>135.68</ele>
        <time>2020-07-04T13:12:05Z</time>
      </trkpt>
      <trkpt lat="50.13011" lon="3.56428">
        <ele>134.72</ele>
        <time>2020-07-04T13:12:18Z</time>
      </trkpt>
      <trkpt lat="50.1305" lon="3.56467">
        <ele>134.72</ele>
        <time>2020-07-04T13:12:27Z</time>
      </trkpt>
      <trkpt lat="50.13055" lon="3.5647">
        <ele>136.16</ele>
        <time>2020-07-04T13:12:28Z</time>
      </trkpt>
      <trkpt lat="50.13064" lon="3.56474">
        <ele>137.13</ele>
        <time>2020-07-04T13:12:30Z</time>
      </trkpt>
      <trkpt lat="50.13132" lon="3.5649">
        <ele>137.61</ele>
        <time>2020-07-04T13:12:45Z</time>
      </trkpt>
      <trkpt lat="50.13136" lon="3.5649">
        <ele>137.61</ele>
        <time>2020-07-04T13:12:46Z</time>
      </trkpt>
      <trkpt lat="50.13218" lon="3.5651">
        <ele>139.05</ele>
        <time>2020-07-04T13:13:04Z</time>
      </trkpt>
      <trkpt lat="50.13223" lon="3.56511">
        <ele>139.05</ele>
        <time>2020-07-04T13:13:05Z</time>
      </trkpt>
      <trkpt lat="50.13231" lon="3.56511">
        <ele>137.61</ele>
        <time>2020-07-04T13:13:07Z</time>
      </trkpt>
      <trkpt lat="50.13248" lon="3.5651">
        <ele>140.49</ele>
        <time>2020-07-04T13:13:11Z</time>
      </trkpt>
      <trkpt lat="50.13305" lon="3.56512">
        <ele>141.93</ele>
        <time>2020-07-04T13:13:23Z</time>
      </trkpt>
      <trkpt lat="50.13342" lon="3.56527">
        <ele>140.49</ele>
        <time>2020-07-04T13:13:30Z</time>
      </trkpt>
      <trkpt lat="50.1343" lon="3.56587">
        <ele>140.01</ele>
        <time>2020-07-04T13:13:47Z</time>
      </trkpt>
      <trkpt lat="50.13508" lon="3.56637">
        <ele>140.01</ele>
        <time>2020-07-04T13:14:00Z</time>
      </trkpt>
      <trkpt lat="50.13616" lon="3.56642">
        <ele>137.61</ele>
        <time>2020-07-04T13:14:17Z</time>
      </trkpt>
      <trkpt lat="50.13622" lon="3.56639">
        <ele>137.61</ele>
        <time>2020-07-04T13:14:18Z</time>
      </trkpt>
      <trkpt lat="50.13689" lon="3.56587">
        <ele>136.64</ele>
        <time>2020-07-04T13:14:32Z</time>
      </trkpt>
      <trkpt lat="50.13692" lon="3.56588">
        <ele>136.64</ele>
        <time>2020-07-04T13:14:33Z</time>
      </trkpt>
      <trkpt lat="50.13696" lon="3.56592">
        <ele>136.64</ele>
        <time>2020-07-04T13:14:34Z</time>
      </trkpt>
      <trkpt lat="50.13699" lon="3.56597">
        <ele>136.64</ele>
        <time>2020-07-04T13:14:35Z</time>
      </trkpt>
      <trkpt lat="50.13702" lon="3.56602">
        <ele>136.16</ele>
        <time>2020-07-04T13:14:36Z</time>
      </trkpt>
      <trkpt lat="50.13772" lon="3.567">
        <ele>135.68</ele>
        <time>2020-07-04T13:14:51Z</time>
      </trkpt>
      <trkpt lat="50.13837" lon="3.56791">
        <ele>135.68</ele>
        <time>2020-07-04T13:15:04Z</time>
      </trkpt>
      <trkpt lat="50.13899" lon="3.56883">
        <ele>137.13</ele>
        <time>2020-07-04T13:15:18Z</time>
      </trkpt>
      <trkpt lat="50.13929" lon="3.56926">
        <ele>139.05</ele>
        <time>2020-07-04T13:15:25Z</time>
      </trkpt>
      <trkpt lat="50.13983" lon="3.57004">
        <ele>141.93</ele>
        <time>2020-07-04T13:15:40Z</time>
      </trkpt>
      <trkpt lat="50.14005" lon="3.57038">
        <ele>142.89</ele>
        <time>2020-07-04T13:15:47Z</time>
      </trkpt>
      <trkpt lat="50.14061" lon="3.57121">
        <ele>144.82</ele>
        <time>2020-07-04T13:16:04Z</time>
      </trkpt>
      <trkpt lat="50.14064" lon="3.57128">
        <ele>145.3</ele>
        <time>2020-07-04T13:16:05Z</time>
      </trkpt>
      <trkpt lat="50.14066" lon="3.57134">
        <ele>145.3</ele>
        <time>2020-07-04T13:16:06Z</time>
      </trkpt>
      <trkpt lat="50.14065" lon="3.57141">
        <ele>145.3</ele>
        <time>2020-07-04T13:16:07Z</time>
      </trkpt>
      <trkpt lat="50.14062" lon="3.57147">
        <ele>144.82</ele>
        <time>2020-07-04T13:16:08Z</time>
      </trkpt>
      <trkpt lat="50.14059" lon="3.57152">
        <ele>145.3</ele>
        <time>2020-07-04T13:16:09Z</time>
      </trkpt>
      <trkpt lat="50.1401" lon="3.5724">
        <ele>146.26</ele>
        <time>2020-07-04T13:16:25Z</time>
      </trkpt>
      <trkpt lat="50.1397" lon="3.57309">
        <ele>144.82</ele>
        <time>2020-07-04T13:16:36Z</time>
      </trkpt>
      <trkpt lat="50.13957" lon="3.57337">
        <ele>144.82</ele>
        <time>2020-07-04T13:16:40Z</time>
      </trkpt>
      <trkpt lat="50.13918" lon="3.57461">
        <ele>142.41</ele>
        <time>2020-07-04T13:16:55Z</time>
      </trkpt>
      <trkpt lat="50.13866" lon="3.57587">
        <ele>142.41</ele>
        <time>2020-07-04T13:17:12Z</time>
      </trkpt>
      <trkpt lat="50.13811" lon="3.57705">
        <ele>140.97</ele>
        <time>2020-07-04T13:17:29Z</time>
      </trkpt>
      <trkpt lat="50.13754" lon="3.57813">
        <ele>140.97</ele>
        <time>2020-07-04T13:17:45Z</time>
      </trkpt>
      <trkpt lat="50.137" lon="3.57919">
        <ele>140.97</ele>
        <time>2020-07-04T13:18:00Z</time>
      </trkpt>
      <trkpt lat="50.13673" lon="3.57975">
        <ele>140.97</ele>
        <time>2020-07-04T13:18:08Z</time>
      </trkpt>
      <trkpt lat="50.13669" lon="3.57982">
        <ele>140.97</ele>
        <time>2020-07-04T13:18:09Z</time>
      </trkpt>
      <trkpt lat="50.13666" lon="3.5799">
        <ele>140.97</ele>
        <time>2020-07-04T13:18:10Z</time>
      </trkpt>
      <trkpt lat="50.13663" lon="3.57996">
        <ele>140.97</ele>
        <time>2020-07-04T13:18:11Z</time>
      </trkpt>
      <trkpt lat="50.13659" lon="3.58003">
        <ele>140.97</ele>
        <time>2020-07-04T13:18:12Z</time>
      </trkpt>
      <trkpt lat="50.13609" lon="3.58107">
        <ele>142.41</ele>
        <time>2020-07-04T13:18:27Z</time>
      </trkpt>
      <trkpt lat="50.13552" lon="3.58224">
        <ele>142.89</ele>
        <time>2020-07-04T13:18:45Z</time>
      </trkpt>
      <trkpt lat="50.13532" lon="3.58259">
        <ele>142.89</ele>
        <time>2020-07-04T13:18:51Z</time>
      </trkpt>
      <trkpt lat="50.13528" lon="3.58263">
        <ele>142.89</ele>
        <time>2020-07-04T13:18:52Z</time>
      </trkpt>
      <trkpt lat="50.13519" lon="3.5827">
        <ele>142.89</ele>
        <time>2020-07-04T13:18:54Z</time>
      </trkpt>
      <trkpt lat="50.13514" lon="3.58271">
        <ele>142.89</ele>
        <time>2020-07-04T13:18:55Z</time>
      </trkpt>
      <trkpt lat="50.13509" lon="3.58271">
        <ele>142.89</ele>
        <time>2020-07-04T13:18:56Z</time>
      </trkpt>
      <trkpt lat="50.13471" lon="3.58268">
        <ele>141.45</ele>
        <time>2020-07-04T13:19:04Z</time>
      </trkpt>
      <trkpt lat="50.13466" lon="3.58267">
        <ele>141.45</ele>
        <time>2020-07-04T13:19:05Z</time>
      </trkpt>
      <trkpt lat="50.13458" lon="3.58266">
        <ele>141.45</ele>
        <time>2020-07-04T13:19:07Z</time>
      </trkpt>
      <trkpt lat="50.13453" lon="3.58266">
        <ele>141.45</ele>
        <time>2020-07-04T13:19:08Z</time>
      </trkpt>
      <trkpt lat="50.13449" lon="3.58265">
        <ele>141.45</ele>
        <time>2020-07-04T13:19:09Z</time>
      </trkpt>
      <trkpt lat="50.13369" lon="3.58261">
        <ele>143.85</ele>
        <time>2020-07-04T13:19:28Z</time>
      </trkpt>
      <trkpt lat="50.13296" lon="3.58274">
        <ele>143.85</ele>
        <time>2020-07-04T13:19:44Z</time>
      </trkpt>
      <trkpt lat="50.13288" lon="3.58276">
        <ele>144.82</ele>
        <time>2020-07-04T13:19:46Z</time>
      </trkpt>
      <trkpt lat="50.13222" lon="3.58299">
        <ele>144.82</ele>
        <time>2020-07-04T13:20:03Z</time>
      </trkpt>
      <trkpt lat="50.13206" lon="3.5831">
        <ele>143.37</ele>
        <time>2020-07-04T13:20:07Z</time>
      </trkpt>
      <trkpt lat="50.13133" lon="3.58363">
        <ele>140.01</ele>
        <time>2020-07-04T13:20:22Z</time>
      </trkpt>
      <trkpt lat="50.13059" lon="3.58411">
        <ele>136.64</ele>
        <time>2020-07-04T13:20:36Z</time>
      </trkpt>
      <trkpt lat="50.13006" lon="3.58443">
        <ele>134.72</ele>
        <time>2020-07-04T13:20:45Z</time>
      </trkpt>
      <trkpt lat="50.12994" lon="3.58452">
        <ele>133.76</ele>
        <time>2020-07-04T13:20:47Z</time>
      </trkpt>
      <trkpt lat="50.12949" lon="3.5848">
        <ele>131.84</ele>
        <time>2020-07-04T13:20:54Z</time>
      </trkpt>
      <trkpt lat="50.12864" lon="3.58529">
        <ele>130.4</ele>
        <time>2020-07-04T13:21:09Z</time>
      </trkpt>
      <trkpt lat="50.12829" lon="3.5855">
        <ele>131.36</ele>
        <time>2020-07-04T13:21:16Z</time>
      </trkpt>
      <trkpt lat="50.12824" lon="3.58554">
        <ele>132.32</ele>
        <time>2020-07-04T13:21:17Z</time>
      </trkpt>
      <trkpt lat="50.12786" lon="3.58582">
        <ele>134.24</ele>
        <time>2020-07-04T13:21:26Z</time>
      </trkpt>
      <trkpt lat="50.12773" lon="3.58594">
        <ele>134.24</ele>
        <time>2020-07-04T13:21:29Z</time>
      </trkpt>
      <trkpt lat="50.12766" lon="3.58602">
        <ele>134.24</ele>
        <time>2020-07-04T13:21:31Z</time>
      </trkpt>
      <trkpt lat="50.12762" lon="3.58607">
        <ele>134.24</ele>
        <time>2020-07-04T13:21:32Z</time>
      </trkpt>
      <trkpt lat="50.12739" lon="3.58634">
        <ele>136.16</ele>
        <time>2020-07-04T13:21:38Z</time>
      </trkpt>
      <trkpt lat="50.12692" lon="3.58688">
        <ele>138.57</ele>
        <time>2020-07-04T13:21:52Z</time>
      </trkpt>
      <trkpt lat="50.1264" lon="3.58739">
        <ele>140.97</ele>
        <time>2020-07-04T13:22:08Z</time>
      </trkpt>
      <trkpt lat="50.12589" lon="3.5878">
        <ele>143.37</ele>
        <time>2020-07-04T13:22:25Z</time>
      </trkpt>
      <trkpt lat="50.12559" lon="3.58805">
        <ele>145.78</ele>
        <time>2020-07-04T13:22:36Z</time>
      </trkpt>
      <trkpt lat="50.12506" lon="3.58851">
        <ele>146.26</ele>
        <time>2020-07-04T13:22:52Z</time>
      </trkpt>
      <trkpt lat="50.12434" lon="3.58905">
        <ele>147.7</ele>
        <time>2020-07-04T13:23:13Z</time>
      </trkpt>
      <trkpt lat="50.12379" lon="3.58953">
        <ele>148.66</ele>
        <time>2020-07-04T13:23:30Z</time>
      </trkpt>
      <trkpt lat="50.12331" lon="3.59003">
        <ele>149.62</ele>
        <time>2020-07-04T13:23:47Z</time>
      </trkpt>
      <trkpt lat="50.12282" lon="3.59052">
        <ele>149.62</ele>
        <time>2020-07-04T13:24:03Z</time>
      </trkpt>
      <trkpt lat="50.12254" lon="3.59087">
        <ele>149.62</ele>
        <time>2020-07-04T13:24:13Z</time>
      </trkpt>
      <trkpt lat="50.12254" lon="3.59093">
        <ele>149.62</ele>
        <time>2020-07-04T13:24:14Z</time>
      </trkpt>
      <trkpt lat="50.12256" lon="3.59098">
        <ele>149.62</ele>
        <time>2020-07-04T13:24:15Z</time>
      </trkpt>
      <trkpt lat="50.12259" lon="3.59102">
        <ele>149.62</ele>
        <time>2020-07-04T13:24:16Z</time>
      </trkpt>
      <trkpt lat="50.12263" lon="3.59104">
        <ele>149.62</ele>
        <time>2020-07-04T13:24:17Z</time>
      </trkpt>
      <trkpt lat="50.12268" lon="3.59107">
        <ele>149.62</ele>
        <time>2020-07-04T13:24:18Z</time>
      </trkpt>
      <trkpt lat="50.12283" lon="3.59119">
        <ele>148.18</ele>
        <time>2020-07-04T13:24:21Z</time>
      </trkpt>
      <trkpt lat="50.12362" lon="3.59192">
        <ele>144.82</ele>
        <time>2020-07-04T13:24:34Z</time>
      </trkpt>
      <trkpt lat="50.12395" lon="3.59246">
        <ele>146.26</ele>
        <time>2020-07-04T13:24:41Z</time>
      </trkpt>
      <trkpt lat="50.12425" lon="3.59316">
        <ele>146.26</ele>
        <time>2020-07-04T13:24:50Z</time>
      </trkpt>
      <trkpt lat="50.12435" lon="3.59345">
        <ele>146.26</ele>
        <time>2020-07-04T13:24:54Z</time>
      </trkpt>
      <trkpt lat="50.12438" lon="3.59353">
        <ele>146.26</ele>
        <time>2020-07-04T13:24:55Z</time>
      </trkpt>
      <trkpt lat="50.1244" lon="3.59362">
        <ele>146.26</ele>
        <time>2020-07-04T13:24:56Z</time>
      </trkpt>
      <trkpt lat="50.12443" lon="3.59371">
        <ele>146.74</ele>
        <time>2020-07-04T13:24:57Z</time>
      </trkpt>
      <trkpt lat="50.12445" lon="3.5938">
        <ele>146.74</ele>
        <time>2020-07-04T13:24:58Z</time>
      </trkpt>
      <trkpt lat="50.12447" lon="3.5939">
        <ele>146.74</ele>
        <time>2020-07-04T13:24:59Z</time>
      </trkpt>
      <trkpt lat="50.12452" lon="3.59409">
        <ele>146.74</ele>
        <time>2020-07-04T13:25:01Z</time>
      </trkpt>
      <trkpt lat="50.12489" lon="3.59526">
        <ele>148.66</ele>
        <time>2020-07-04T13:25:16Z</time>
      </trkpt>
      <trkpt lat="50.12498" lon="3.59552">
        <ele>149.14</ele>
        <time>2020-07-04T13:25:20Z</time>
      </trkpt>
      <trkpt lat="50.12499" lon="3.59558">
        <ele>149.14</ele>
        <time>2020-07-04T13:25:21Z</time>
      </trkpt>
      <trkpt lat="50.12502" lon="3.59565">
        <ele>149.14</ele>
        <time>2020-07-04T13:25:22Z</time>
      </trkpt>
      <trkpt lat="50.12504" lon="3.59571">
        <ele>149.14</ele>
        <time>2020-07-04T13:25:23Z</time>
      </trkpt>
      <trkpt lat="50.12506" lon="3.59578">
        <ele>149.14</ele>
        <time>2020-07-04T13:25:24Z</time>
      </trkpt>
      <trkpt lat="50.12511" lon="3.59592">
        <ele>149.14</ele>
        <time>2020-07-04T13:25:26Z</time>
      </trkpt>
      <trkpt lat="50.12545" lon="3.59677">
        <ele>148.18</ele>
        <time>2020-07-04T13:25:37Z</time>
      </trkpt>
      <trkpt lat="50.12598" lon="3.59832">
        <ele>147.22</ele>
        <time>2020-07-04T13:25:54Z</time>
      </trkpt>
      <trkpt lat="50.12636" lon="3.59956">
        <ele>147.22</ele>
        <time>2020-07-04T13:26:09Z</time>
      </trkpt>
      <trkpt lat="50.12644" lon="3.5998">
        <ele>148.66</ele>
        <time>2020-07-04T13:26:12Z</time>
      </trkpt>
      <trkpt lat="50.12668" lon="3.60059">
        <ele>150.1</ele>
        <time>2020-07-04T13:26:22Z</time>
      </trkpt>
      <trkpt lat="50.12701" lon="3.60169">
        <ele>151.06</ele>
        <time>2020-07-04T13:26:38Z</time>
      </trkpt>
      <trkpt lat="50.1273" lon="3.6026">
        <ele>151.06</ele>
        <time>2020-07-04T13:26:51Z</time>
      </trkpt>
      <trkpt lat="50.1277" lon="3.60371">
        <ele>152.99</ele>
        <time>2020-07-04T13:27:08Z</time>
      </trkpt>
      <trkpt lat="50.12779" lon="3.60399">
        <ele>151.54</ele>
        <time>2020-07-04T13:27:12Z</time>
      </trkpt>
      <trkpt lat="50.12822" lon="3.6053">
        <ele>149.14</ele>
        <time>2020-07-04T13:27:27Z</time>
      </trkpt>
      <trkpt lat="50.12862" lon="3.60663">
        <ele>147.7</ele>
        <time>2020-07-04T13:27:41Z</time>
      </trkpt>
      <trkpt lat="50.12876" lon="3.60699">
        <ele>147.7</ele>
        <time>2020-07-04T13:27:45Z</time>
      </trkpt>
      <trkpt lat="50.12923" lon="3.60794">
        <ele>147.22</ele>
        <time>2020-07-04T13:27:57Z</time>
      </trkpt>
      <trkpt lat="50.12979" lon="3.60943">
        <ele>150.58</ele>
        <time>2020-07-04T13:28:14Z</time>
      </trkpt>
      <trkpt lat="50.13028" lon="3.61083">
        <ele>152.51</ele>
        <time>2020-07-04T13:28:30Z</time>
      </trkpt>
      <trkpt lat="50.13063" lon="3.6118">
        <ele>151.54</ele>
        <time>2020-07-04T13:28:41Z</time>
      </trkpt>
      <trkpt lat="50.1308" lon="3.61213">
        <ele>151.06</ele>
        <time>2020-07-04T13:28:45Z</time>
      </trkpt>
      <trkpt lat="50.13085" lon="3.61232">
        <ele>151.06</ele>
        <time>2020-07-04T13:28:47Z</time>
      </trkpt>
      <trkpt lat="50.13087" lon="3.61242">
        <ele>150.58</ele>
        <time>2020-07-04T13:28:48Z</time>
      </trkpt>
      <trkpt lat="50.13088" lon="3.61252">
        <ele>150.58</ele>
        <time>2020-07-04T13:28:49Z</time>
      </trkpt>
      <trkpt lat="50.1311" lon="3.614">
        <ele>150.58</ele>
        <time>2020-07-04T13:29:04Z</time>
      </trkpt>
      <trkpt lat="50.13125" lon="3.61518">
        <ele>151.54</ele>
        <time>2020-07-04T13:29:19Z</time>
      </trkpt>
      <trkpt lat="50.1313" lon="3.61561">
        <ele>152.51</ele>
        <time>2020-07-04T13:29:25Z</time>
      </trkpt>
      <trkpt lat="50.13142" lon="3.61665">
        <ele>151.06</ele>
        <time>2020-07-04T13:29:38Z</time>
      </trkpt>
      <trkpt lat="50.1315" lon="3.61714">
        <ele>150.58</ele>
        <time>2020-07-04T13:29:44Z</time>
      </trkpt>
      <trkpt lat="50.13151" lon="3.61721">
        <ele>150.58</ele>
        <time>2020-07-04T13:29:45Z</time>
      </trkpt>
      <trkpt lat="50.13155" lon="3.61736">
        <ele>150.58</ele>
        <time>2020-07-04T13:29:47Z</time>
      </trkpt>
      <trkpt lat="50.13157" lon="3.61743">
        <ele>150.58</ele>
        <time>2020-07-04T13:29:48Z</time>
      </trkpt>
      <trkpt lat="50.13158" lon="3.61751">
        <ele>150.58</ele>
        <time>2020-07-04T13:29:49Z</time>
      </trkpt>
      <trkpt lat="50.13161" lon="3.61767">
        <ele>150.58</ele>
        <time>2020-07-04T13:29:51Z</time>
      </trkpt>
      <trkpt lat="50.13163" lon="3.61774">
        <ele>150.58</ele>
        <time>2020-07-04T13:29:52Z</time>
      </trkpt>
      <trkpt lat="50.13183" lon="3.61882">
        <ele>150.1</ele>
        <time>2020-07-04T13:30:06Z</time>
      </trkpt>
      <trkpt lat="50.1319" lon="3.62027">
        <ele>150.1</ele>
        <time>2020-07-04T13:30:24Z</time>
      </trkpt>
      <trkpt lat="50.13194" lon="3.62146">
        <ele>152.03</ele>
        <time>2020-07-04T13:30:40Z</time>
      </trkpt>
      <trkpt lat="50.13192" lon="3.62235">
        <ele>152.99</ele>
        <time>2020-07-04T13:30:54Z</time>
      </trkpt>
      <trkpt lat="50.1319" lon="3.62367">
        <ele>152.99</ele>
        <time>2020-07-04T13:31:12Z</time>
      </trkpt>
      <trkpt lat="50.13194" lon="3.62389">
        <ele>152.99</ele>
        <time>2020-07-04T13:31:15Z</time>
      </trkpt>
      <trkpt lat="50.13208" lon="3.62447">
        <ele>152.99</ele>
        <time>2020-07-04T13:31:23Z</time>
      </trkpt>
      <trkpt lat="50.13216" lon="3.62483">
        <ele>152.99</ele>
        <time>2020-07-04T13:31:28Z</time>
      </trkpt>
      <trkpt lat="50.13229" lon="3.62539">
        <ele>153.47</ele>
        <time>2020-07-04T13:31:36Z</time>
      </trkpt>
      <trkpt lat="50.13241" lon="3.62605">
        <ele>153.95</ele>
        <time>2020-07-04T13:31:46Z</time>
      </trkpt>
      <trkpt lat="50.13242" lon="3.62612">
        <ele>153.95</ele>
        <time>2020-07-04T13:31:47Z</time>
      </trkpt>
      <trkpt lat="50.13243" lon="3.62619">
        <ele>153.95</ele>
        <time>2020-07-04T13:31:48Z</time>
      </trkpt>
      <trkpt lat="50.13244" lon="3.62626">
        <ele>153.95</ele>
        <time>2020-07-04T13:31:49Z</time>
      </trkpt>
      <trkpt lat="50.13245" lon="3.62633">
        <ele>154.91</ele>
        <time>2020-07-04T13:31:50Z</time>
      </trkpt>
      <trkpt lat="50.13248" lon="3.62682">
        <ele>154.91</ele>
        <time>2020-07-04T13:31:57Z</time>
      </trkpt>
      <trkpt lat="50.13245" lon="3.6273">
        <ele>156.35</ele>
        <time>2020-07-04T13:32:04Z</time>
      </trkpt>
      <trkpt lat="50.13244" lon="3.62737">
        <ele>156.35</ele>
        <time>2020-07-04T13:32:05Z</time>
      </trkpt>
      <trkpt lat="50.13243" lon="3.62743">
        <ele>156.35</ele>
        <time>2020-07-04T13:32:06Z</time>
      </trkpt>
      <trkpt lat="50.13225" lon="3.6285">
        <ele>157.79</ele>
        <time>2020-07-04T13:32:24Z</time>
      </trkpt>
      <trkpt lat="50.13214" lon="3.62961">
        <ele>159.72</ele>
        <time>2020-07-04T13:32:42Z</time>
      </trkpt>
      <trkpt lat="50.13214" lon="3.6309">
        <ele>159.72</ele>
        <time>2020-07-04T13:33:00Z</time>
      </trkpt>
      <trkpt lat="50.13218" lon="3.63227">
        <ele>159.72</ele>
        <time>2020-07-04T13:33:18Z</time>
      </trkpt>
      <trkpt lat="50.13239" lon="3.6336">
        <ele>159.72</ele>
        <time>2020-07-04T13:33:35Z</time>
      </trkpt>
      <trkpt lat="50.13266" lon="3.635">
        <ele>158.27</ele>
        <time>2020-07-04T13:33:52Z</time>
      </trkpt>
      <trkpt lat="50.13283" lon="3.63646">
        <ele>158.27</ele>
        <time>2020-07-04T13:34:09Z</time>
      </trkpt>
      <trkpt lat="50.13297" lon="3.63768">
        <ele>158.27</ele>
        <time>2020-07-04T13:34:25Z</time>
      </trkpt>
      <trkpt lat="50.13299" lon="3.63782">
        <ele>159.72</ele>
        <time>2020-07-04T13:34:27Z</time>
      </trkpt>
      <trkpt lat="50.13314" lon="3.63916">
        <ele>160.68</ele>
        <time>2020-07-04T13:34:46Z</time>
      </trkpt>
      <trkpt lat="50.13324" lon="3.64014">
        <ele>161.16</ele>
        <time>2020-07-04T13:35:01Z</time>
      </trkpt>
      <trkpt lat="50.13329" lon="3.64039">
        <ele>161.16</ele>
        <time>2020-07-04T13:35:05Z</time>
      </trkpt>
      <trkpt lat="50.13334" lon="3.64123">
        <ele>161.16</ele>
        <time>2020-07-04T13:35:15Z</time>
      </trkpt>
      <trkpt lat="50.13334" lon="3.64132">
        <ele>161.16</ele>
        <time>2020-07-04T13:35:16Z</time>
      </trkpt>
      <trkpt lat="50.1334" lon="3.64185">
        <ele>159.72</ele>
        <time>2020-07-04T13:35:22Z</time>
      </trkpt>
      <trkpt lat="50.13359" lon="3.64291">
        <ele>159.72</ele>
        <time>2020-07-04T13:35:33Z</time>
      </trkpt>
      <trkpt lat="50.13362" lon="3.64301">
        <ele>159.72</ele>
        <time>2020-07-04T13:35:34Z</time>
      </trkpt>
      <trkpt lat="50.13376" lon="3.64382">
        <ele>159.24</ele>
        <time>2020-07-04T13:35:42Z</time>
      </trkpt>
      <trkpt lat="50.1339" lon="3.64519">
        <ele>160.68</ele>
        <time>2020-07-04T13:35:57Z</time>
      </trkpt>
      <trkpt lat="50.13391" lon="3.64528">
        <ele>160.68</ele>
        <time>2020-07-04T13:35:58Z</time>
      </trkpt>
      <trkpt lat="50.13392" lon="3.64536">
        <ele>160.68</ele>
        <time>2020-07-04T13:35:59Z</time>
      </trkpt>
      <trkpt lat="50.134" lon="3.64594">
        <ele>160.68</ele>
        <time>2020-07-04T13:36:06Z</time>
      </trkpt>
      <trkpt lat="50.13401" lon="3.64602">
        <ele>160.68</ele>
        <time>2020-07-04T13:36:07Z</time>
      </trkpt>
      <trkpt lat="50.13416" lon="3.64698">
        <ele>161.16</ele>
        <time>2020-07-04T13:36:19Z</time>
      </trkpt>
      <trkpt lat="50.1343" lon="3.64817">
        <ele>161.16</ele>
        <time>2020-07-04T13:36:34Z</time>
      </trkpt>
      <trkpt lat="50.13431" lon="3.64826">
        <ele>161.16</ele>
        <time>2020-07-04T13:36:35Z</time>
      </trkpt>
      <trkpt lat="50.13432" lon="3.64834">
        <ele>161.16</ele>
        <time>2020-07-04T13:36:36Z</time>
      </trkpt>
      <trkpt lat="50.13462" lon="3.6494">
        <ele>162.12</ele>
        <time>2020-07-04T13:36:51Z</time>
      </trkpt>
      <trkpt lat="50.13466" lon="3.64952">
        <ele>162.12</ele>
        <time>2020-07-04T13:36:53Z</time>
      </trkpt>
      <trkpt lat="50.13498" lon="3.65078">
        <ele>161.16</ele>
        <time>2020-07-04T13:37:10Z</time>
      </trkpt>
      <trkpt lat="50.135" lon="3.65094">
        <ele>161.16</ele>
        <time>2020-07-04T13:37:12Z</time>
      </trkpt>
      <trkpt lat="50.13502" lon="3.65102">
        <ele>161.16</ele>
        <time>2020-07-04T13:37:13Z</time>
      </trkpt>
      <trkpt lat="50.13503" lon="3.6511">
        <ele>161.16</ele>
        <time>2020-07-04T13:37:14Z</time>
      </trkpt>
      <trkpt lat="50.13514" lon="3.65192">
        <ele>161.16</ele>
        <time>2020-07-04T13:37:25Z</time>
      </trkpt>
      <trkpt lat="50.13514" lon="3.65199">
        <ele>160.68</ele>
        <time>2020-07-04T13:37:26Z</time>
      </trkpt>
      <trkpt lat="50.13517" lon="3.65224">
        <ele>160.2</ele>
        <time>2020-07-04T13:37:30Z</time>
      </trkpt>
      <trkpt lat="50.13518" lon="3.6523">
        <ele>160.2</ele>
        <time>2020-07-04T13:37:31Z</time>
      </trkpt>
      <trkpt lat="50.13541" lon="3.65347">
        <ele>161.64</ele>
        <time>2020-07-04T13:37:48Z</time>
      </trkpt>
      <trkpt lat="50.1357" lon="3.65462">
        <ele>161.64</ele>
        <time>2020-07-04T13:38:03Z</time>
      </trkpt>
      <trkpt lat="50.13604" lon="3.65564">
        <ele>161.64</ele>
        <time>2020-07-04T13:38:19Z</time>
      </trkpt>
      <trkpt lat="50.1362" lon="3.65597">
        <ele>162.12</ele>
        <time>2020-07-04T13:38:25Z</time>
      </trkpt>
      <trkpt lat="50.13624" lon="3.65602">
        <ele>162.12</ele>
        <time>2020-07-04T13:38:26Z</time>
      </trkpt>
      <trkpt lat="50.13649" lon="3.65655">
        <ele>163.08</ele>
        <time>2020-07-04T13:38:36Z</time>
      </trkpt>
      <trkpt lat="50.13692" lon="3.65719">
        <ele>164.52</ele>
        <time>2020-07-04T13:38:49Z</time>
      </trkpt>
      <trkpt lat="50.13746" lon="3.65786">
        <ele>165</ele>
        <time>2020-07-04T13:39:05Z</time>
      </trkpt>
      <trkpt lat="50.13748" lon="3.65796">
        <ele>165</ele>
        <time>2020-07-04T13:39:10Z</time>
      </trkpt>
      <trkpt lat="50.13749" lon="3.65801">
        <ele>165</ele>
        <time>2020-07-04T13:39:11Z</time>
      </trkpt>
      <trkpt lat="50.1375" lon="3.65805">
        <ele>165</ele>
        <time>2020-07-04T13:39:12Z</time>
      </trkpt>
      <trkpt lat="50.13749" lon="3.65812">
        <ele>165</ele>
        <time>2020-07-04T13:39:13Z</time>
      </trkpt>
      <trkpt lat="50.13748" lon="3.65819">
        <ele>165</ele>
        <time>2020-07-04T13:39:14Z</time>
      </trkpt>
      <trkpt lat="50.13747" lon="3.65828">
        <ele>165</ele>
        <time>2020-07-04T13:39:15Z</time>
      </trkpt>
      <trkpt lat="50.13747" lon="3.65837">
        <ele>165</ele>
        <time>2020-07-04T13:39:16Z</time>
      </trkpt>
      <trkpt lat="50.13746" lon="3.65927">
        <ele>165</ele>
        <time>2020-07-04T13:39:26Z</time>
      </trkpt>
      <trkpt lat="50.13748" lon="3.65936">
        <ele>165</ele>
        <time>2020-07-04T13:39:27Z</time>
      </trkpt>
      <trkpt lat="50.13751" lon="3.65944">
        <ele>165</ele>
        <time>2020-07-04T13:39:28Z</time>
      </trkpt>
      <trkpt lat="50.13755" lon="3.65951">
        <ele>165</ele>
        <time>2020-07-04T13:39:29Z</time>
      </trkpt>
      <trkpt lat="50.13759" lon="3.65957">
        <ele>165</ele>
        <time>2020-07-04T13:39:30Z</time>
      </trkpt>
      <trkpt lat="50.13784" lon="3.65994">
        <ele>164.04</ele>
        <time>2020-07-04T13:39:35Z</time>
      </trkpt>
      <trkpt lat="50.1385" lon="3.6609">
        <ele>160.68</ele>
        <time>2020-07-04T13:39:46Z</time>
      </trkpt>
      <trkpt lat="50.13881" lon="3.66134">
        <ele>160.2</ele>
        <time>2020-07-04T13:39:51Z</time>
      </trkpt>
      <trkpt lat="50.13886" lon="3.66143">
        <ele>159.24</ele>
        <time>2020-07-04T13:39:52Z</time>
      </trkpt>
      <trkpt lat="50.13892" lon="3.66152">
        <ele>159.72</ele>
        <time>2020-07-04T13:39:53Z</time>
      </trkpt>
      <trkpt lat="50.13898" lon="3.6616">
        <ele>159.72</ele>
        <time>2020-07-04T13:39:54Z</time>
      </trkpt>
      <trkpt lat="50.13904" lon="3.66169">
        <ele>159.72</ele>
        <time>2020-07-04T13:39:55Z</time>
      </trkpt>
      <trkpt lat="50.13909" lon="3.66177">
        <ele>159.24</ele>
        <time>2020-07-04T13:39:56Z</time>
      </trkpt>
      <trkpt lat="50.13915" lon="3.66185">
        <ele>159.24</ele>
        <time>2020-07-04T13:39:57Z</time>
      </trkpt>
      <trkpt lat="50.13921" lon="3.66194">
        <ele>159.24</ele>
        <time>2020-07-04T13:39:58Z</time>
      </trkpt>
      <trkpt lat="50.13926" lon="3.66202">
        <ele>158.75</ele>
        <time>2020-07-04T13:39:59Z</time>
      </trkpt>
      <trkpt lat="50.13932" lon="3.6621">
        <ele>158.75</ele>
        <time>2020-07-04T13:40:00Z</time>
      </trkpt>
      <trkpt lat="50.13938" lon="3.66218">
        <ele>158.75</ele>
        <time>2020-07-04T13:40:01Z</time>
      </trkpt>
      <trkpt lat="50.13943" lon="3.66227">
        <ele>158.75</ele>
        <time>2020-07-04T13:40:02Z</time>
      </trkpt>
      <trkpt lat="50.13949" lon="3.66235">
        <ele>158.75</ele>
        <time>2020-07-04T13:40:03Z</time>
      </trkpt>
      <trkpt lat="50.13955" lon="3.66244">
        <ele>157.79</ele>
        <time>2020-07-04T13:40:04Z</time>
      </trkpt>
      <trkpt lat="50.13961" lon="3.66253">
        <ele>157.79</ele>
        <time>2020-07-04T13:40:05Z</time>
      </trkpt>
      <trkpt lat="50.13967" lon="3.66262">
        <ele>157.31</ele>
        <time>2020-07-04T13:40:06Z</time>
      </trkpt>
      <trkpt lat="50.13973" lon="3.6627">
        <ele>157.31</ele>
        <time>2020-07-04T13:40:07Z</time>
      </trkpt>
      <trkpt lat="50.14054" lon="3.66389">
        <ele>155.87</ele>
        <time>2020-07-04T13:40:21Z</time>
      </trkpt>
      <trkpt lat="50.14106" lon="3.66466">
        <ele>158.75</ele>
        <time>2020-07-04T13:40:32Z</time>
      </trkpt>
      <trkpt lat="50.14109" lon="3.66471">
        <ele>159.24</ele>
        <time>2020-07-04T13:40:33Z</time>
      </trkpt>
      <trkpt lat="50.14146" lon="3.66523">
        <ele>161.16</ele>
        <time>2020-07-04T13:40:43Z</time>
      </trkpt>
      <trkpt lat="50.1415" lon="3.6653">
        <ele>161.16</ele>
        <time>2020-07-04T13:40:44Z</time>
      </trkpt>
      <trkpt lat="50.14164" lon="3.6655">
        <ele>161.64</ele>
        <time>2020-07-04T13:40:47Z</time>
      </trkpt>
      <trkpt lat="50.1417" lon="3.66558">
        <ele>162.6</ele>
        <time>2020-07-04T13:40:48Z</time>
      </trkpt>
      <trkpt lat="50.14219" lon="3.6663">
        <ele>164.52</ele>
        <time>2020-07-04T13:40:59Z</time>
      </trkpt>
      <trkpt lat="50.14226" lon="3.66638">
        <ele>165</ele>
        <time>2020-07-04T13:41:01Z</time>
      </trkpt>
      <trkpt lat="50.14229" lon="3.66643">
        <ele>165</ele>
        <time>2020-07-04T13:41:02Z</time>
      </trkpt>
      <trkpt lat="50.14232" lon="3.66647">
        <ele>165</ele>
        <time>2020-07-04T13:41:03Z</time>
      </trkpt>
      <trkpt lat="50.1424" lon="3.6666">
        <ele>165.48</ele>
        <time>2020-07-04T13:41:06Z</time>
      </trkpt>
      <trkpt lat="50.14242" lon="3.66664">
        <ele>165</ele>
        <time>2020-07-04T13:41:07Z</time>
      </trkpt>
      <trkpt lat="50.14245" lon="3.66668">
        <ele>165</ele>
        <time>2020-07-04T13:41:08Z</time>
      </trkpt>
      <trkpt lat="50.14262" lon="3.66693">
        <ele>165</ele>
        <time>2020-07-04T13:41:15Z</time>
      </trkpt>
      <trkpt lat="50.1428" lon="3.66718">
        <ele>165.48</ele>
        <time>2020-07-04T13:41:24Z</time>
      </trkpt>
      <trkpt lat="50.1428" lon="3.66721">
        <ele>166.45</ele>
        <time>2020-07-04T13:41:25Z</time>
      </trkpt>
      <trkpt lat="50.1428" lon="3.66725">
        <ele>166.45</ele>
        <time>2020-07-04T13:41:26Z</time>
      </trkpt>
      <trkpt lat="50.14278" lon="3.66729">
        <ele>166.45</ele>
        <time>2020-07-04T13:41:27Z</time>
      </trkpt>
      <trkpt lat="50.14276" lon="3.66732">
        <ele>166.45</ele>
        <time>2020-07-04T13:41:28Z</time>
      </trkpt>
      <trkpt lat="50.14274" lon="3.66737">
        <ele>166.45</ele>
        <time>2020-07-04T13:41:29Z</time>
      </trkpt>
      <trkpt lat="50.14271" lon="3.66742">
        <ele>166.45</ele>
        <time>2020-07-04T13:41:30Z</time>
      </trkpt>
      <trkpt lat="50.14223" lon="3.66824">
        <ele>166.45</ele>
        <time>2020-07-04T13:41:45Z</time>
      </trkpt>
      <trkpt lat="50.14166" lon="3.66921">
        <ele>166.45</ele>
        <time>2020-07-04T13:42:02Z</time>
      </trkpt>
      <trkpt lat="50.14122" lon="3.67">
        <ele>166.45</ele>
        <time>2020-07-04T13:42:15Z</time>
      </trkpt>
      <trkpt lat="50.1412" lon="3.67008">
        <ele>166.45</ele>
        <time>2020-07-04T13:42:16Z</time>
      </trkpt>
      <trkpt lat="50.14118" lon="3.67015">
        <ele>166.45</ele>
        <time>2020-07-04T13:42:17Z</time>
      </trkpt>
      <trkpt lat="50.14114" lon="3.67022">
        <ele>166.45</ele>
        <time>2020-07-04T13:42:18Z</time>
      </trkpt>
      <trkpt lat="50.14112" lon="3.67029">
        <ele>166.45</ele>
        <time>2020-07-04T13:42:19Z</time>
      </trkpt>
      <trkpt lat="50.1411" lon="3.67038">
        <ele>165</ele>
        <time>2020-07-04T13:42:20Z</time>
      </trkpt>
      <trkpt lat="50.14109" lon="3.67047">
        <ele>165</ele>
        <time>2020-07-04T13:42:21Z</time>
      </trkpt>
      <trkpt lat="50.1411" lon="3.67054">
        <ele>165</ele>
        <time>2020-07-04T13:42:22Z</time>
      </trkpt>
      <trkpt lat="50.14111" lon="3.67064">
        <ele>165</ele>
        <time>2020-07-04T13:42:23Z</time>
      </trkpt>
      <trkpt lat="50.14113" lon="3.67099">
        <ele>165</ele>
        <time>2020-07-04T13:42:27Z</time>
      </trkpt>
      <trkpt lat="50.14125" lon="3.67225">
        <ele>162.6</ele>
        <time>2020-07-04T13:42:40Z</time>
      </trkpt>
      <trkpt lat="50.14129" lon="3.67267">
        <ele>162.12</ele>
        <time>2020-07-04T13:42:44Z</time>
      </trkpt>
      <trkpt lat="50.14129" lon="3.67277">
        <ele>162.12</ele>
        <time>2020-07-04T13:42:45Z</time>
      </trkpt>
      <trkpt lat="50.14127" lon="3.67296">
        <ele>162.12</ele>
        <time>2020-07-04T13:42:47Z</time>
      </trkpt>
      <trkpt lat="50.14127" lon="3.67306">
        <ele>162.12</ele>
        <time>2020-07-04T13:42:48Z</time>
      </trkpt>
      <trkpt lat="50.14122" lon="3.67339">
        <ele>162.12</ele>
        <time>2020-07-04T13:42:52Z</time>
      </trkpt>
      <trkpt lat="50.1412" lon="3.67362">
        <ele>162.12</ele>
        <time>2020-07-04T13:42:55Z</time>
      </trkpt>
      <trkpt lat="50.14119" lon="3.67369">
        <ele>162.6</ele>
        <time>2020-07-04T13:42:56Z</time>
      </trkpt>
      <trkpt lat="50.14108" lon="3.67488">
        <ele>164.04</ele>
        <time>2020-07-04T13:43:13Z</time>
      </trkpt>
      <trkpt lat="50.14096" lon="3.67625">
        <ele>162.6</ele>
        <time>2020-07-04T13:43:31Z</time>
      </trkpt>
      <trkpt lat="50.1409" lon="3.67693">
        <ele>162.12</ele>
        <time>2020-07-04T13:43:40Z</time>
      </trkpt>
      <trkpt lat="50.1409" lon="3.677">
        <ele>162.12</ele>
        <time>2020-07-04T13:43:41Z</time>
      </trkpt>
      <trkpt lat="50.1408" lon="3.67794">
        <ele>162.12</ele>
        <time>2020-07-04T13:43:56Z</time>
      </trkpt>
      <trkpt lat="50.1408" lon="3.67794">
        <ele>162.12</ele>
        <time>2020-07-04T13:44:09Z</time>
      </trkpt>
      <trkpt lat="50.1408" lon="3.67796">
        <ele>162.12</ele>
        <time>2020-07-04T13:44:10Z</time>
      </trkpt>
      <trkpt lat="50.1408" lon="3.67798">
        <ele>162.12</ele>
        <time>2020-07-04T13:44:11Z</time>
      </trkpt>
      <trkpt lat="50.1408" lon="3.678">
        <ele>162.12</ele>
        <time>2020-07-04T13:44:12Z</time>
      </trkpt>
      <trkpt lat="50.1408" lon="3.67802">
        <ele>162.12</ele>
        <time>2020-07-04T13:44:13Z</time>
      </trkpt>
      <trkpt lat="50.14079" lon="3.67806">
        <ele>162.12</ele>
        <time>2020-07-04T13:44:14Z</time>
      </trkpt>
      <trkpt lat="50.14079" lon="3.67809">
        <ele>162.12</ele>
        <time>2020-07-04T13:44:15Z</time>
      </trkpt>
      <trkpt lat="50.14078" lon="3.67814">
        <ele>162.12</ele>
        <time>2020-07-04T13:44:16Z</time>
      </trkpt>
      <trkpt lat="50.14077" lon="3.67818">
        <ele>162.12</ele>
        <time>2020-07-04T13:44:17Z</time>
      </trkpt>
      <trkpt lat="50.14076" lon="3.67823">
        <ele>162.12</ele>
        <time>2020-07-04T13:44:18Z</time>
      </trkpt>
      <trkpt lat="50.14058" lon="3.67906">
        <ele>163.08</ele>
        <time>2020-07-04T13:44:33Z</time>
      </trkpt>
      <trkpt lat="50.14057" lon="3.67912">
        <ele>163.08</ele>
        <time>2020-07-04T13:44:34Z</time>
      </trkpt>
      <trkpt lat="50.14041" lon="3.67983">
        <ele>163.56</ele>
        <time>2020-07-04T13:44:46Z</time>
      </trkpt>
      <trkpt lat="50.14036" lon="3.6801">
        <ele>163.56</ele>
        <time>2020-07-04T13:44:50Z</time>
      </trkpt>
      <trkpt lat="50.14031" lon="3.68053">
        <ele>163.56</ele>
        <time>2020-07-04T13:44:56Z</time>
      </trkpt>
      <trkpt lat="50.14027" lon="3.68092">
        <ele>163.56</ele>
        <time>2020-07-04T13:45:02Z</time>
      </trkpt>
      <trkpt lat="50.14026" lon="3.68105">
        <ele>163.56</ele>
        <time>2020-07-04T13:45:04Z</time>
      </trkpt>
      <trkpt lat="50.14025" lon="3.68111">
        <ele>164.04</ele>
        <time>2020-07-04T13:45:05Z</time>
      </trkpt>
      <trkpt lat="50.14008" lon="3.68211">
        <ele>166.45</ele>
        <time>2020-07-04T13:45:21Z</time>
      </trkpt>
      <trkpt lat="50.13999" lon="3.68256">
        <ele>167.41</ele>
        <time>2020-07-04T13:45:29Z</time>
      </trkpt>
      <trkpt lat="50.13998" lon="3.68262">
        <ele>167.89</ele>
        <time>2020-07-04T13:45:30Z</time>
      </trkpt>
      <trkpt lat="50.13997" lon="3.68269">
        <ele>167.89</ele>
        <time>2020-07-04T13:45:31Z</time>
      </trkpt>
      <trkpt lat="50.13984" lon="3.6833">
        <ele>168.37</ele>
        <time>2020-07-04T13:45:40Z</time>
      </trkpt>
      <trkpt lat="50.13974" lon="3.68448">
        <ele>166.93</ele>
        <time>2020-07-04T13:45:55Z</time>
      </trkpt>
      <trkpt lat="50.1397" lon="3.68568">
        <ele>166.93</ele>
        <time>2020-07-04T13:46:09Z</time>
      </trkpt>
      <trkpt lat="50.13969" lon="3.68594">
        <ele>166.93</ele>
        <time>2020-07-04T13:46:12Z</time>
      </trkpt>
      <trkpt lat="50.13964" lon="3.68728">
        <ele>164.52</ele>
        <time>2020-07-04T13:46:28Z</time>
      </trkpt>
      <trkpt lat="50.13962" lon="3.68764">
        <ele>164.52</ele>
        <time>2020-07-04T13:46:34Z</time>
      </trkpt>
      <trkpt lat="50.13962" lon="3.6877">
        <ele>164.52</ele>
        <time>2020-07-04T13:46:35Z</time>
      </trkpt>
      <trkpt lat="50.13961" lon="3.68777">
        <ele>164.52</ele>
        <time>2020-07-04T13:46:36Z</time>
      </trkpt>
      <trkpt lat="50.13958" lon="3.6884">
        <ele>165.48</ele>
        <time>2020-07-04T13:46:46Z</time>
      </trkpt>
      <trkpt lat="50.13956" lon="3.68873">
        <ele>165.48</ele>
        <time>2020-07-04T13:46:51Z</time>
      </trkpt>
      <trkpt lat="50.13949" lon="3.68979">
        <ele>166.93</ele>
        <time>2020-07-04T13:47:07Z</time>
      </trkpt>
      <trkpt lat="50.13945" lon="3.6903">
        <ele>163.56</ele>
        <time>2020-07-04T13:47:13Z</time>
      </trkpt>
      <trkpt lat="50.13943" lon="3.6904">
        <ele>163.56</ele>
        <time>2020-07-04T13:47:14Z</time>
      </trkpt>
      <trkpt lat="50.13933" lon="3.69102">
        <ele>162.12</ele>
        <time>2020-07-04T13:47:20Z</time>
      </trkpt>
      <trkpt lat="50.13932" lon="3.69113">
        <ele>162.12</ele>
        <time>2020-07-04T13:47:21Z</time>
      </trkpt>
      <trkpt lat="50.13932" lon="3.69124">
        <ele>161.64</ele>
        <time>2020-07-04T13:47:22Z</time>
      </trkpt>
      <trkpt lat="50.13937" lon="3.6924">
        <ele>161.16</ele>
        <time>2020-07-04T13:47:33Z</time>
      </trkpt>
      <trkpt lat="50.13936" lon="3.69249">
        <ele>161.16</ele>
        <time>2020-07-04T13:47:34Z</time>
      </trkpt>
      <trkpt lat="50.1393" lon="3.69284">
        <ele>161.16</ele>
        <time>2020-07-04T13:47:38Z</time>
      </trkpt>
      <trkpt lat="50.13928" lon="3.69292">
        <ele>161.16</ele>
        <time>2020-07-04T13:47:39Z</time>
      </trkpt>
      <trkpt lat="50.13908" lon="3.69423">
        <ele>159.24</ele>
        <time>2020-07-04T13:47:53Z</time>
      </trkpt>
      <trkpt lat="50.13906" lon="3.69444">
        <ele>158.75</ele>
        <time>2020-07-04T13:47:55Z</time>
      </trkpt>
      <trkpt lat="50.13905" lon="3.69454">
        <ele>158.75</ele>
        <time>2020-07-04T13:47:56Z</time>
      </trkpt>
      <trkpt lat="50.13904" lon="3.69464">
        <ele>158.75</ele>
        <time>2020-07-04T13:47:57Z</time>
      </trkpt>
      <trkpt lat="50.13882" lon="3.69615">
        <ele>158.27</ele>
        <time>2020-07-04T13:48:13Z</time>
      </trkpt>
      <trkpt lat="50.13868" lon="3.69728">
        <ele>156.83</ele>
        <time>2020-07-04T13:48:26Z</time>
      </trkpt>
      <trkpt lat="50.13868" lon="3.69736">
        <ele>156.35</ele>
        <time>2020-07-04T13:48:27Z</time>
      </trkpt>
      <trkpt lat="50.13868" lon="3.69759">
        <ele>155.87</ele>
        <time>2020-07-04T13:48:30Z</time>
      </trkpt>
      <trkpt lat="50.13869" lon="3.69767">
        <ele>155.87</ele>
        <time>2020-07-04T13:48:31Z</time>
      </trkpt>
      <trkpt lat="50.13869" lon="3.69775">
        <ele>155.87</ele>
        <time>2020-07-04T13:48:32Z</time>
      </trkpt>
      <trkpt lat="50.13868" lon="3.69784">
        <ele>155.87</ele>
        <time>2020-07-04T13:48:33Z</time>
      </trkpt>
      <trkpt lat="50.13868" lon="3.69794">
        <ele>155.39</ele>
        <time>2020-07-04T13:48:34Z</time>
      </trkpt>
      <trkpt lat="50.1385" lon="3.69928">
        <ele>152.99</ele>
        <time>2020-07-04T13:48:48Z</time>
      </trkpt>
      <trkpt lat="50.13836" lon="3.70035">
        <ele>150.1</ele>
        <time>2020-07-04T13:48:57Z</time>
      </trkpt>
      <trkpt lat="50.13833" lon="3.7008">
        <ele>148.66</ele>
        <time>2020-07-04T13:49:01Z</time>
      </trkpt>
      <trkpt lat="50.13835" lon="3.7009">
        <ele>148.66</ele>
        <time>2020-07-04T13:49:02Z</time>
      </trkpt>
      <trkpt lat="50.13837" lon="3.70102">
        <ele>148.18</ele>
        <time>2020-07-04T13:49:03Z</time>
      </trkpt>
      <trkpt lat="50.1384" lon="3.70111">
        <ele>148.18</ele>
        <time>2020-07-04T13:49:04Z</time>
      </trkpt>
      <trkpt lat="50.13844" lon="3.70121">
        <ele>148.18</ele>
        <time>2020-07-04T13:49:05Z</time>
      </trkpt>
      <trkpt lat="50.13847" lon="3.70129">
        <ele>148.18</ele>
        <time>2020-07-04T13:49:06Z</time>
      </trkpt>
      <trkpt lat="50.13851" lon="3.70147">
        <ele>147.22</ele>
        <time>2020-07-04T13:49:08Z</time>
      </trkpt>
      <trkpt lat="50.1385" lon="3.70157">
        <ele>146.74</ele>
        <time>2020-07-04T13:49:09Z</time>
      </trkpt>
      <trkpt lat="50.13848" lon="3.70167">
        <ele>146.26</ele>
        <time>2020-07-04T13:49:10Z</time>
      </trkpt>
      <trkpt lat="50.138" lon="3.70309">
        <ele>142.89</ele>
        <time>2020-07-04T13:49:24Z</time>
      </trkpt>
      <trkpt lat="50.13795" lon="3.70317">
        <ele>142.41</ele>
        <time>2020-07-04T13:49:25Z</time>
      </trkpt>
      <trkpt lat="50.13789" lon="3.70324">
        <ele>141.93</ele>
        <time>2020-07-04T13:49:26Z</time>
      </trkpt>
      <trkpt lat="50.13776" lon="3.70336">
        <ele>141.45</ele>
        <time>2020-07-04T13:49:28Z</time>
      </trkpt>
      <trkpt lat="50.1377" lon="3.70344">
        <ele>140.97</ele>
        <time>2020-07-04T13:49:29Z</time>
      </trkpt>
      <trkpt lat="50.13765" lon="3.70353">
        <ele>140.97</ele>
        <time>2020-07-04T13:49:30Z</time>
      </trkpt>
      <trkpt lat="50.1373" lon="3.70422">
        <ele>139.53</ele>
        <time>2020-07-04T13:49:38Z</time>
      </trkpt>
      <trkpt lat="50.13726" lon="3.70425">
        <ele>139.53</ele>
        <time>2020-07-04T13:49:39Z</time>
      </trkpt>
      <trkpt lat="50.13723" lon="3.70423">
        <ele>139.53</ele>
        <time>2020-07-04T13:49:40Z</time>
      </trkpt>
      <trkpt lat="50.13719" lon="3.70418">
        <ele>140.97</ele>
        <time>2020-07-04T13:49:41Z</time>
      </trkpt>
      <trkpt lat="50.13718" lon="3.70411">
        <ele>140.97</ele>
        <time>2020-07-04T13:49:42Z</time>
      </trkpt>
      <trkpt lat="50.13717" lon="3.70405">
        <ele>140.97</ele>
        <time>2020-07-04T13:49:43Z</time>
      </trkpt>
      <trkpt lat="50.13715" lon="3.70399">
        <ele>140.97</ele>
        <time>2020-07-04T13:49:44Z</time>
      </trkpt>
      <trkpt lat="50.13699" lon="3.70335">
        <ele>141.45</ele>
        <time>2020-07-04T13:49:53Z</time>
      </trkpt>
      <trkpt lat="50.13696" lon="3.70329">
        <ele>141.45</ele>
        <time>2020-07-04T13:49:54Z</time>
      </trkpt>
      <trkpt lat="50.13681" lon="3.70277">
        <ele>142.41</ele>
        <time>2020-07-04T13:50:01Z</time>
      </trkpt>
      <trkpt lat="50.13666" lon="3.70224">
        <ele>143.85</ele>
        <time>2020-07-04T13:50:09Z</time>
      </trkpt>
      <trkpt lat="50.13663" lon="3.7021">
        <ele>144.34</ele>
        <time>2020-07-04T13:50:11Z</time>
      </trkpt>
      <trkpt lat="50.1366" lon="3.70197">
        <ele>144.82</ele>
        <time>2020-07-04T13:50:13Z</time>
      </trkpt>
      <trkpt lat="50.13659" lon="3.70191">
        <ele>144.82</ele>
        <time>2020-07-04T13:50:14Z</time>
      </trkpt>
      <trkpt lat="50.13652" lon="3.70159">
        <ele>145.78</ele>
        <time>2020-07-04T13:50:19Z</time>
      </trkpt>
      <trkpt lat="50.13651" lon="3.70152">
        <ele>146.74</ele>
        <time>2020-07-04T13:50:20Z</time>
      </trkpt>
      <trkpt lat="50.13626" lon="3.70086">
        <ele>150.1</ele>
        <time>2020-07-04T13:50:33Z</time>
      </trkpt>
      <trkpt lat="50.13623" lon="3.70081">
        <ele>150.1</ele>
        <time>2020-07-04T13:50:34Z</time>
      </trkpt>
      <trkpt lat="50.13621" lon="3.70075">
        <ele>150.1</ele>
        <time>2020-07-04T13:50:35Z</time>
      </trkpt>
      <trkpt lat="50.13618" lon="3.7007">
        <ele>150.58</ele>
        <time>2020-07-04T13:50:36Z</time>
      </trkpt>
      <trkpt lat="50.13592" lon="3.70001">
        <ele>151.54</ele>
        <time>2020-07-04T13:50:50Z</time>
      </trkpt>
      <trkpt lat="50.13566" lon="3.6992">
        <ele>151.54</ele>
        <time>2020-07-04T13:51:05Z</time>
      </trkpt>
      <trkpt lat="50.1356" lon="3.69895">
        <ele>151.54</ele>
        <time>2020-07-04T13:51:09Z</time>
      </trkpt>
      <trkpt lat="50.13559" lon="3.69882">
        <ele>151.54</ele>
        <time>2020-07-04T13:51:11Z</time>
      </trkpt>
      <trkpt lat="50.13557" lon="3.69876">
        <ele>151.54</ele>
        <time>2020-07-04T13:51:12Z</time>
      </trkpt>
      <trkpt lat="50.13556" lon="3.69869">
        <ele>151.54</ele>
        <time>2020-07-04T13:51:13Z</time>
      </trkpt>
      <trkpt lat="50.13525" lon="3.69749">
        <ele>151.54</ele>
        <time>2020-07-04T13:51:32Z</time>
      </trkpt>
      <trkpt lat="50.13503" lon="3.69686">
        <ele>151.54</ele>
        <time>2020-07-04T13:51:43Z</time>
      </trkpt>
      <trkpt lat="50.13501" lon="3.69681">
        <ele>151.54</ele>
        <time>2020-07-04T13:51:44Z</time>
      </trkpt>
      <trkpt lat="50.13498" lon="3.69675">
        <ele>151.54</ele>
        <time>2020-07-04T13:51:45Z</time>
      </trkpt>
      <trkpt lat="50.13478" lon="3.69629">
        <ele>152.03</ele>
        <time>2020-07-04T13:51:54Z</time>
      </trkpt>
      <trkpt lat="50.13437" lon="3.69544">
        <ele>152.03</ele>
        <time>2020-07-04T13:52:09Z</time>
      </trkpt>
      <trkpt lat="50.13406" lon="3.69449">
        <ele>152.03</ele>
        <time>2020-07-04T13:52:25Z</time>
      </trkpt>
      <trkpt lat="50.13379" lon="3.69364">
        <ele>152.51</ele>
        <time>2020-07-04T13:52:40Z</time>
      </trkpt>
      <trkpt lat="50.13377" lon="3.69358">
        <ele>152.51</ele>
        <time>2020-07-04T13:52:41Z</time>
      </trkpt>
      <trkpt lat="50.13355" lon="3.69282">
        <ele>151.06</ele>
        <time>2020-07-04T13:52:53Z</time>
      </trkpt>
      <trkpt lat="50.13353" lon="3.69275">
        <ele>151.06</ele>
        <time>2020-07-04T13:52:54Z</time>
      </trkpt>
      <trkpt lat="50.13323" lon="3.69156">
        <ele>148.18</ele>
        <time>2020-07-04T13:53:08Z</time>
      </trkpt>
      <trkpt lat="50.13277" lon="3.69051">
        <ele>147.22</ele>
        <time>2020-07-04T13:53:21Z</time>
      </trkpt>
      <trkpt lat="50.13247" lon="3.69009">
        <ele>147.7</ele>
        <time>2020-07-04T13:53:30Z</time>
      </trkpt>
      <trkpt lat="50.13231" lon="3.68985">
        <ele>147.7</ele>
        <time>2020-07-04T13:53:35Z</time>
      </trkpt>
      <trkpt lat="50.1321" lon="3.68954">
        <ele>147.22</ele>
        <time>2020-07-04T13:53:41Z</time>
      </trkpt>
      <trkpt lat="50.13195" lon="3.68933">
        <ele>146.74</ele>
        <time>2020-07-04T13:53:45Z</time>
      </trkpt>
      <trkpt lat="50.13188" lon="3.68923">
        <ele>146.74</ele>
        <time>2020-07-04T13:53:47Z</time>
      </trkpt>
      <trkpt lat="50.13184" lon="3.68917">
        <ele>146.74</ele>
        <time>2020-07-04T13:53:48Z</time>
      </trkpt>
      <trkpt lat="50.13121" lon="3.68829">
        <ele>144.34</ele>
        <time>2020-07-04T13:54:03Z</time>
      </trkpt>
      <trkpt lat="50.13064" lon="3.68718">
        <ele>141.45</ele>
        <time>2020-07-04T13:54:18Z</time>
      </trkpt>
      <trkpt lat="50.13036" lon="3.68657">
        <ele>140.49</ele>
        <time>2020-07-04T13:54:25Z</time>
      </trkpt>
      <trkpt lat="50.13033" lon="3.68648">
        <ele>140.01</ele>
        <time>2020-07-04T13:54:26Z</time>
      </trkpt>
      <trkpt lat="50.12982" lon="3.68548">
        <ele>139.53</ele>
        <time>2020-07-04T13:54:40Z</time>
      </trkpt>
      <trkpt lat="50.12944" lon="3.68463">
        <ele>139.53</ele>
        <time>2020-07-04T13:54:55Z</time>
      </trkpt>
      <trkpt lat="50.12912" lon="3.68363">
        <ele>140.49</ele>
        <time>2020-07-04T13:55:13Z</time>
      </trkpt>
      <trkpt lat="50.12905" lon="3.6834">
        <ele>140.49</ele>
        <time>2020-07-04T13:55:17Z</time>
      </trkpt>
      <trkpt lat="50.12902" lon="3.68326">
        <ele>140.49</ele>
        <time>2020-07-04T13:55:19Z</time>
      </trkpt>
      <trkpt lat="50.1287" lon="3.68195">
        <ele>139.53</ele>
        <time>2020-07-04T13:55:38Z</time>
      </trkpt>
      <trkpt lat="50.12868" lon="3.68183">
        <ele>140.49</ele>
        <time>2020-07-04T13:55:40Z</time>
      </trkpt>
      <trkpt lat="50.12868" lon="3.68177">
        <ele>139.05</ele>
        <time>2020-07-04T13:55:41Z</time>
      </trkpt>
      <trkpt lat="50.12866" lon="3.6817">
        <ele>139.05</ele>
        <time>2020-07-04T13:55:42Z</time>
      </trkpt>
      <trkpt lat="50.12864" lon="3.68165">
        <ele>139.05</ele>
        <time>2020-07-04T13:55:43Z</time>
      </trkpt>
      <trkpt lat="50.12844" lon="3.68126">
        <ele>139.05</ele>
        <time>2020-07-04T13:55:50Z</time>
      </trkpt>
      <trkpt lat="50.12826" lon="3.68088">
        <ele>139.05</ele>
        <time>2020-07-04T13:55:57Z</time>
      </trkpt>
      <trkpt lat="50.12823" lon="3.68072">
        <ele>139.05</ele>
        <time>2020-07-04T13:56:00Z</time>
      </trkpt>
      <trkpt lat="50.12824" lon="3.68067">
        <ele>139.05</ele>
        <time>2020-07-04T13:56:01Z</time>
      </trkpt>
      <trkpt lat="50.12825" lon="3.68062">
        <ele>139.05</ele>
        <time>2020-07-04T13:56:02Z</time>
      </trkpt>
      <trkpt lat="50.12828" lon="3.68058">
        <ele>139.05</ele>
        <time>2020-07-04T13:56:03Z</time>
      </trkpt>
      <trkpt lat="50.1283" lon="3.68054">
        <ele>138.57</ele>
        <time>2020-07-04T13:56:04Z</time>
      </trkpt>
      <trkpt lat="50.12834" lon="3.68051">
        <ele>138.57</ele>
        <time>2020-07-04T13:56:05Z</time>
      </trkpt>
      <trkpt lat="50.12837" lon="3.68048">
        <ele>139.53</ele>
        <time>2020-07-04T13:56:06Z</time>
      </trkpt>
      <trkpt lat="50.12884" lon="3.68017">
        <ele>140.97</ele>
        <time>2020-07-04T13:56:19Z</time>
      </trkpt>
      <trkpt lat="50.12888" lon="3.68017">
        <ele>141.45</ele>
        <time>2020-07-04T13:56:20Z</time>
      </trkpt>
      <trkpt lat="50.12891" lon="3.68017">
        <ele>141.45</ele>
        <time>2020-07-04T13:56:21Z</time>
      </trkpt>
      <trkpt lat="50.12894" lon="3.68019">
        <ele>141.45</ele>
        <time>2020-07-04T13:56:22Z</time>
      </trkpt>
      <trkpt lat="50.12897" lon="3.68022">
        <ele>141.45</ele>
        <time>2020-07-04T13:56:23Z</time>
      </trkpt>
      <trkpt lat="50.12899" lon="3.68026">
        <ele>141.93</ele>
        <time>2020-07-04T13:56:24Z</time>
      </trkpt>
      <trkpt lat="50.12899" lon="3.68032">
        <ele>142.41</ele>
        <time>2020-07-04T13:56:25Z</time>
      </trkpt>
      <trkpt lat="50.129" lon="3.6804">
        <ele>142.41</ele>
        <time>2020-07-04T13:56:26Z</time>
      </trkpt>
      <trkpt lat="50.129" lon="3.68046">
        <ele>142.41</ele>
        <time>2020-07-04T13:56:27Z</time>
      </trkpt>
      <trkpt lat="50.129" lon="3.68054">
        <ele>142.41</ele>
        <time>2020-07-04T13:56:28Z</time>
      </trkpt>
      <trkpt lat="50.12902" lon="3.68079">
        <ele>141.93</ele>
        <time>2020-07-04T13:56:31Z</time>
      </trkpt>
      <trkpt lat="50.12935" lon="3.68198">
        <ele>142.89</ele>
        <time>2020-07-04T13:56:46Z</time>
      </trkpt>
      <trkpt lat="50.12947" lon="3.68234">
        <ele>142.89</ele>
        <time>2020-07-04T13:56:51Z</time>
      </trkpt>
      <trkpt lat="50.1295" lon="3.6824">
        <ele>142.89</ele>
        <time>2020-07-04T13:56:52Z</time>
      </trkpt>
      <trkpt lat="50.12952" lon="3.68247">
        <ele>142.89</ele>
        <time>2020-07-04T13:56:53Z</time>
      </trkpt>
      <trkpt lat="50.12962" lon="3.6828">
        <ele>142.89</ele>
        <time>2020-07-04T13:56:58Z</time>
      </trkpt>
      <trkpt lat="50.12963" lon="3.68288">
        <ele>142.89</ele>
        <time>2020-07-04T13:56:59Z</time>
      </trkpt>
      <trkpt lat="50.12962" lon="3.68296">
        <ele>142.89</ele>
        <time>2020-07-04T13:57:00Z</time>
      </trkpt>
      <trkpt lat="50.12959" lon="3.68304">
        <ele>142.89</ele>
        <time>2020-07-04T13:57:01Z</time>
      </trkpt>
      <trkpt lat="50.12956" lon="3.68308">
        <ele>142.89</ele>
        <time>2020-07-04T13:57:02Z</time>
      </trkpt>
      <trkpt lat="50.12951" lon="3.68312">
        <ele>142.89</ele>
        <time>2020-07-04T13:57:03Z</time>
      </trkpt>
      <trkpt lat="50.12947" lon="3.68314">
        <ele>142.89</ele>
        <time>2020-07-04T13:57:04Z</time>
      </trkpt>
      <trkpt lat="50.12942" lon="3.68315">
        <ele>143.37</ele>
        <time>2020-07-04T13:57:05Z</time>
      </trkpt>
      <trkpt lat="50.12925" lon="3.68321">
        <ele>143.85</ele>
        <time>2020-07-04T13:57:09Z</time>
      </trkpt>
      <trkpt lat="50.1292" lon="3.68322">
        <ele>143.85</ele>
        <time>2020-07-04T13:57:10Z</time>
      </trkpt>
      <trkpt lat="50.12916" lon="3.68325">
        <ele>143.85</ele>
        <time>2020-07-04T13:57:11Z</time>
      </trkpt>
      <trkpt lat="50.12907" lon="3.68331">
        <ele>145.3</ele>
        <time>2020-07-04T13:57:13Z</time>
      </trkpt>
      <trkpt lat="50.12903" lon="3.68334">
        <ele>146.26</ele>
        <time>2020-07-04T13:57:14Z</time>
      </trkpt>
      <trkpt lat="50.129" lon="3.68337">
        <ele>146.26</ele>
        <time>2020-07-04T13:57:15Z</time>
      </trkpt>
      <trkpt lat="50.12846" lon="3.68422">
        <ele>143.37</ele>
        <time>2020-07-04T13:57:30Z</time>
      </trkpt>
      <trkpt lat="50.12828" lon="3.68494">
        <ele>140.01</ele>
        <time>2020-07-04T13:57:36Z</time>
      </trkpt>
      <trkpt lat="50.1281" lon="3.68574">
        <ele>136.64</ele>
        <time>2020-07-04T13:57:42Z</time>
      </trkpt>
      <trkpt lat="50.12805" lon="3.68594">
        <ele>135.68</ele>
        <time>2020-07-04T13:57:44Z</time>
      </trkpt>
      <trkpt lat="50.12802" lon="3.68603">
        <ele>136.16</ele>
        <time>2020-07-04T13:57:45Z</time>
      </trkpt>
      <trkpt lat="50.12798" lon="3.68611">
        <ele>135.68</ele>
        <time>2020-07-04T13:57:46Z</time>
      </trkpt>
      <trkpt lat="50.12793" lon="3.68615">
        <ele>135.68</ele>
        <time>2020-07-04T13:57:47Z</time>
      </trkpt>
      <trkpt lat="50.12786" lon="3.68614">
        <ele>135.68</ele>
        <time>2020-07-04T13:57:48Z</time>
      </trkpt>
      <trkpt lat="50.12781" lon="3.68609">
        <ele>135.68</ele>
        <time>2020-07-04T13:57:49Z</time>
      </trkpt>
      <trkpt lat="50.12777" lon="3.68601">
        <ele>135.2</ele>
        <time>2020-07-04T13:57:50Z</time>
      </trkpt>
      <trkpt lat="50.12774" lon="3.68592">
        <ele>135.2</ele>
        <time>2020-07-04T13:57:51Z</time>
      </trkpt>
      <trkpt lat="50.1277" lon="3.68584">
        <ele>135.2</ele>
        <time>2020-07-04T13:57:52Z</time>
      </trkpt>
      <trkpt lat="50.12766" lon="3.68576">
        <ele>135.2</ele>
        <time>2020-07-04T13:57:53Z</time>
      </trkpt>
      <trkpt lat="50.12738" lon="3.68524">
        <ele>134.72</ele>
        <time>2020-07-04T13:58:00Z</time>
      </trkpt>
      <trkpt lat="50.12735" lon="3.68516">
        <ele>134.72</ele>
        <time>2020-07-04T13:58:01Z</time>
      </trkpt>
      <trkpt lat="50.12736" lon="3.68506">
        <ele>134.72</ele>
        <time>2020-07-04T13:58:02Z</time>
      </trkpt>
      <trkpt lat="50.1274" lon="3.68498">
        <ele>134.72</ele>
        <time>2020-07-04T13:58:03Z</time>
      </trkpt>
      <trkpt lat="50.12744" lon="3.68493">
        <ele>134.72</ele>
        <time>2020-07-04T13:58:04Z</time>
      </trkpt>
      <trkpt lat="50.12749" lon="3.6849">
        <ele>134.72</ele>
        <time>2020-07-04T13:58:05Z</time>
      </trkpt>
      <trkpt lat="50.12793" lon="3.68454">
        <ele>136.64</ele>
        <time>2020-07-04T13:58:12Z</time>
      </trkpt>
      <trkpt lat="50.12798" lon="3.68447">
        <ele>136.64</ele>
        <time>2020-07-04T13:58:13Z</time>
      </trkpt>
      <trkpt lat="50.128" lon="3.68436">
        <ele>136.64</ele>
        <time>2020-07-04T13:58:14Z</time>
      </trkpt>
      <trkpt lat="50.12799" lon="3.68428">
        <ele>136.64</ele>
        <time>2020-07-04T13:58:15Z</time>
      </trkpt>
      <trkpt lat="50.12796" lon="3.6842">
        <ele>136.64</ele>
        <time>2020-07-04T13:58:16Z</time>
      </trkpt>
      <trkpt lat="50.12793" lon="3.68413">
        <ele>136.64</ele>
        <time>2020-07-04T13:58:17Z</time>
      </trkpt>
      <trkpt lat="50.1279" lon="3.68405">
        <ele>136.64</ele>
        <time>2020-07-04T13:58:18Z</time>
      </trkpt>
      <trkpt lat="50.12787" lon="3.68396">
        <ele>136.64</ele>
        <time>2020-07-04T13:58:19Z</time>
      </trkpt>
      <trkpt lat="50.12785" lon="3.68387">
        <ele>136.64</ele>
        <time>2020-07-04T13:58:20Z</time>
      </trkpt>
      <trkpt lat="50.12756" lon="3.68303">
        <ele>135.2</ele>
        <time>2020-07-04T13:58:30Z</time>
      </trkpt>
      <trkpt lat="50.12721" lon="3.68203">
        <ele>135.2</ele>
        <time>2020-07-04T13:58:43Z</time>
      </trkpt>
      <trkpt lat="50.12719" lon="3.68196">
        <ele>135.2</ele>
        <time>2020-07-04T13:58:44Z</time>
      </trkpt>
      <trkpt lat="50.12716" lon="3.68188">
        <ele>135.2</ele>
        <time>2020-07-04T13:58:45Z</time>
      </trkpt>
      <trkpt lat="50.12713" lon="3.68181">
        <ele>135.2</ele>
        <time>2020-07-04T13:58:46Z</time>
      </trkpt>
      <trkpt lat="50.12709" lon="3.68174">
        <ele>135.2</ele>
        <time>2020-07-04T13:58:47Z</time>
      </trkpt>
      <trkpt lat="50.12705" lon="3.68167">
        <ele>135.2</ele>
        <time>2020-07-04T13:58:48Z</time>
      </trkpt>
      <trkpt lat="50.12687" lon="3.6813">
        <ele>135.2</ele>
        <time>2020-07-04T13:58:53Z</time>
      </trkpt>
      <trkpt lat="50.12668" lon="3.68092">
        <ele>134.72</ele>
        <time>2020-07-04T13:58:58Z</time>
      </trkpt>
      <trkpt lat="50.12665" lon="3.68084">
        <ele>134.24</ele>
        <time>2020-07-04T13:58:59Z</time>
      </trkpt>
      <trkpt lat="50.12653" lon="3.68053">
        <ele>134.24</ele>
        <time>2020-07-04T13:59:03Z</time>
      </trkpt>
      <trkpt lat="50.12621" lon="3.67988">
        <ele>135.68</ele>
        <time>2020-07-04T13:59:13Z</time>
      </trkpt>
      <trkpt lat="50.12618" lon="3.67982">
        <ele>134.24</ele>
        <time>2020-07-04T13:59:14Z</time>
      </trkpt>
      <trkpt lat="50.12616" lon="3.67976">
        <ele>134.24</ele>
        <time>2020-07-04T13:59:15Z</time>
      </trkpt>
      <trkpt lat="50.12609" lon="3.67964">
        <ele>134.24</ele>
        <time>2020-07-04T13:59:17Z</time>
      </trkpt>
      <trkpt lat="50.12606" lon="3.67957">
        <ele>134.24</ele>
        <time>2020-07-04T13:59:18Z</time>
      </trkpt>
      <trkpt lat="50.12591" lon="3.67929">
        <ele>134.24</ele>
        <time>2020-07-04T13:59:22Z</time>
      </trkpt>
      <trkpt lat="50.12586" lon="3.67921">
        <ele>134.24</ele>
        <time>2020-07-04T13:59:23Z</time>
      </trkpt>
      <trkpt lat="50.12581" lon="3.67914">
        <ele>133.76</ele>
        <time>2020-07-04T13:59:24Z</time>
      </trkpt>
      <trkpt lat="50.12575" lon="3.67908">
        <ele>133.76</ele>
        <time>2020-07-04T13:59:25Z</time>
      </trkpt>
      <trkpt lat="50.1257" lon="3.67903">
        <ele>133.76</ele>
        <time>2020-07-04T13:59:26Z</time>
      </trkpt>
      <trkpt lat="50.12564" lon="3.67898">
        <ele>133.76</ele>
        <time>2020-07-04T13:59:27Z</time>
      </trkpt>
      <trkpt lat="50.12548" lon="3.67887">
        <ele>133.76</ele>
        <time>2020-07-04T13:59:30Z</time>
      </trkpt>
      <trkpt lat="50.12518" lon="3.67858">
        <ele>133.76</ele>
        <time>2020-07-04T13:59:37Z</time>
      </trkpt>
      <trkpt lat="50.12485" lon="3.67819">
        <ele>133.76</ele>
        <time>2020-07-04T13:59:50Z</time>
      </trkpt>
      <trkpt lat="50.1248" lon="3.67813">
        <ele>134.24</ele>
        <time>2020-07-04T13:59:59Z</time>
      </trkpt>
    </trkseg>
  </trk>
</gpx>